Time,TemperatureF,DewpointF,PressureIn,WindDirection,WindDirectionDegrees,WindSpeedMPH,WindSpeedGustMPH,Humidity,HourlyPrecipIn,Conditions,Clouds,dailyrainin,SolarRadiationWatts/m^2,SoftwareType,DateUTC
2013-03-06 00:00:00,25.2,22.1,30.27,NW,313,3.0,3.0,88,0.00,,,0.00,0,Wunderground v.1.15,2013-03-06 06:00:00,
2013-03-06 00:03:00,25.1,22.0,30.27,WNW,282,2.0,3.0,88,0.00,,,0.00,0,Wunderground v.1.15,2013-03-06 06:03:00,
2013-03-06 00:05:00,25.1,22.0,30.27,WNW,302,2.0,4.0,88,0.00,,,0.00,0,Wunderground v.1.15,2013-03-06 06:05:00,
2013-03-06 00:07:00,25.0,21.9,30.27,WNW,299,2.0,4.0,88,0.00,,,0.00,0,Wunderground v.1.15,2013-03-06 06:07:00,
2013-03-06 00:10:00,24.9,21.8,30.27,NW,306,2.0,3.0,88,0.00,,,0.00,0,Wunderground v.1.15,2013-03-06 06:10:00,
2013-03-06 00:13:00,24.9,21.8,30.27,NNW,338,2.0,7.0,88,0.00,,,0.00,0,Wunderground v.1.15,2013-03-06 06:13:00,
2013-03-06 00:15:00,24.9,21.8,30.27,NNW,342,3.0,7.0,88,0.00,,,0.00,0,Wunderground v.1.15,2013-03-06 06:15:00,
2013-03-06 00:16:00,24.9,21.8,30.27,NNW,330,3.0,7.0,88,0.00,,,0.00,0,Wunderground v.1.15,2013-03-06 06:16:00,
2013-03-06 00:21:00,24.9,21.8,30.27,WNW,296,3.0,4.0,88,0.00,,,0.00,0,Wunderground v.1.15,2013-03-06 06:21:00,
2013-03-06 00:22:00,24.9,21.8,30.27,WNW,297,3.0,4.0,88,0.00,,,0.00,0,Wunderground v.1.15,2013-03-06 06:22:00,
2013-03-06 00:24:00,24.9,21.8,30.27,NNW,344,3.0,4.0,88,0.00,,,0.00,0,Wunderground v.1.15,2013-03-06 06:24:00,
2013-03-06 00:25:00,24.9,21.8,30.27,NW,317,3.0,4.0,88,0.00,,,0.00,0,Wunderground v.1.15,2013-03-06 06:25:00,
2013-03-06 00:28:00,24.9,21.8,30.28,West,271,3.0,4.0,88,0.00,,,0.00,0,Wunderground v.1.15,2013-03-06 06:28:00,
2013-03-06 00:30:00,24.9,21.8,30.28,WNW,302,2.0,2.0,88,0.00,,,0.00,0,Wunderground v.1.15,2013-03-06 06:30:00,
2013-03-06 00:32:00,24.9,21.8,30.28,WNW,302,2.0,2.0,88,0.00,,,0.00,0,Wunderground v.1.15,2013-03-06 06:32:00,
2013-03-06 00:34:00,24.9,21.8,30.28,NW,309,2.0,3.0,88,0.00,,,0.00,0,Wunderground v.1.15,2013-03-06 06:34:00,
2013-03-06 00:37:00,24.9,21.8,30.28,NW,305,3.0,5.0,88,0.00,,,0.00,0,Wunderground v.1.15,2013-03-06 06:37:00,
2013-03-06 00:38:00,24.9,21.8,30.28,NW,306,3.0,5.0,88,0.00,,,0.00,0,Wunderground v.1.15,2013-03-06 06:38:00,
2013-03-06 00:39:00,24.9,21.8,30.28,NW,313,3.0,5.0,88,0.00,,,0.00,0,Wunderground v.1.15,2013-03-06 06:39:00,
2013-03-06 00:43:00,25.0,21.9,30.28,NW,304,3.0,3.0,88,0.00,,,0.00,0,Wunderground v.1.15,2013-03-06 06:43:00,
2013-03-06 00:46:00,25.0,21.9,30.28,WNW,303,3.0,5.0,88,0.00,,,0.00,0,Wunderground v.1.15,2013-03-06 06:46:00,
2013-03-06 00:49:00,25.0,21.9,30.28,West,267,3.0,5.0,88,0.00,,,0.00,0,Wunderground v.1.15,2013-03-06 06:49:00,
2013-03-06 00:51:00,25.0,21.9,30.28,NNW,332,2.0,3.0,88,0.00,,,0.00,0,Wunderground v.1.15,2013-03-06 06:51:00,
2013-03-06 00:52:00,25.0,21.9,30.28,NNW,339,2.0,3.0,88,0.00,,,0.00,0,Wunderground v.1.15,2013-03-06 06:52:00,
2013-03-06 00:53:00,25.0,21.9,30.28,WNW,300,3.0,3.0,88,0.00,,,0.00,0,Wunderground v.1.15,2013-03-06 06:53:00,
2013-03-06 00:58:00,25.1,22.0,30.29,NNW,348,3.0,8.0,88,0.00,,,0.00,0,Wunderground v.1.15,2013-03-06 06:58:00,
2013-03-06 00:59:00,25.0,21.9,30.29,NW,309,3.0,8.0,88,0.00,,,0.00,0,Wunderground v.1.15,2013-03-06 06:59:00,
2013-03-06 01:01:00,25.1,22.0,30.29,West,281,3.0,6.0,88,0.00,,,0.00,0,Wunderground v.1.15,2013-03-06 07:01:00,
2013-03-06 01:02:00,25.1,21.8,30.28,NW,311,4.0,6.0,87,0.00,,,0.00,0,Wunderground v.1.15,2013-03-06 07:02:00,
2013-03-06 01:05:00,25.0,21.7,30.28,NW,311,4.0,6.0,87,0.00,,,0.00,0,Wunderground v.1.15,2013-03-06 07:05:00,
2013-03-06 01:07:00,25.0,21.7,30.28,NW,325,3.0,6.0,87,0.00,,,0.00,0,Wunderground v.1.15,2013-03-06 07:07:00,
2013-03-06 01:10:00,25.0,21.7,30.28,NNW,336,3.0,4.0,87,0.00,,,0.00,0,Wunderground v.1.15,2013-03-06 07:10:00,
2013-03-06 01:11:00,24.9,21.6,30.28,WNW,302,3.0,4.0,87,0.00,,,0.00,0,Wunderground v.1.15,2013-03-06 07:11:00,
2013-03-06 01:14:00,24.9,21.6,30.29,North,350,2.0,5.0,87,0.00,,,0.00,0,Wunderground v.1.15,2013-03-06 07:14:00,
2013-03-06 01:16:00,24.8,21.5,30.29,NNW,332,3.0,5.0,87,0.00,,,0.00,0,Wunderground v.1.15,2013-03-06 07:16:00,
2013-03-06 01:17:00,24.8,21.5,30.29,NNW,345,3.0,5.0,87,0.00,,,0.00,0,Wunderground v.1.15,2013-03-06 07:17:00,
2013-03-06 01:21:00,24.7,21.4,30.29,WNW,289,3.0,3.0,87,0.00,,,0.00,0,Wunderground v.1.15,2013-03-06 07:21:00,
2013-03-06 01:22:00,24.6,21.3,30.29,WNW,289,3.0,3.0,87,0.00,,,0.00,0,Wunderground v.1.15,2013-03-06 07:22:00,
2013-03-06 01:24:00,24.5,21.2,30.29,WNW,290,2.0,3.0,87,0.00,,,0.00,0,Wunderground v.1.15,2013-03-06 07:24:00,
2013-03-06 01:28:00,24.3,21.0,30.28,WNW,298,1.0,3.0,87,0.00,,,0.00,0,Wunderground v.1.15,2013-03-06 07:28:00,
2013-03-06 01:29:00,24.3,21.0,30.28,NNW,348,1.0,3.0,87,0.00,,,0.00,0,Wunderground v.1.15,2013-03-06 07:29:00,
2013-03-06 01:31:00,24.3,21.0,30.28,NNW,327,1.0,3.0,87,0.00,,,0.00,0,Wunderground v.1.15,2013-03-06 07:31:00,
2013-03-06 01:34:00,24.2,20.9,30.28,NW,305,2.0,5.0,87,0.00,,,0.00,0,Wunderground v.1.15,2013-03-06 07:34:00,
2013-03-06 01:36:00,24.2,20.9,30.29,NW,305,2.0,5.0,87,0.00,,,0.00,0,Wunderground v.1.15,2013-03-06 07:36:00,
2013-03-06 01:38:00,24.1,20.8,30.29,NW,309,2.0,5.0,87,0.00,,,0.00,0,Wunderground v.1.15,2013-03-06 07:38:00,
2013-03-06 01:41:00,24.0,20.7,30.29,NW,318,2.0,4.0,87,0.00,,,0.00,0,Wunderground v.1.15,2013-03-06 07:41:00,
2013-03-06 01:42:00,24.0,20.7,30.29,NW,318,2.0,4.0,87,0.00,,,0.00,0,Wunderground v.1.15,2013-03-06 07:42:00,
2013-03-06 01:43:00,24.0,20.7,30.29,NW,318,1.0,4.0,87,0.00,,,0.00,0,Wunderground v.1.15,2013-03-06 07:43:00,
2013-03-06 01:44:00,24.0,20.7,30.29,NW,318,1.0,4.0,87,0.00,,,0.00,0,Wunderground v.1.15,2013-03-06 07:44:00,
2013-03-06 01:48:00,23.8,20.5,30.29,NW,317,1.0,4.0,87,0.00,,,0.00,0,Wunderground v.1.15,2013-03-06 07:48:00,
2013-03-06 01:50:00,23.8,20.8,30.29,NW,304,1.0,1.0,88,0.00,,,0.00,0,Wunderground v.1.15,2013-03-06 07:50:00,
2013-03-06 01:52:00,23.8,20.8,30.30,NW,304,1.0,1.0,88,0.00,,,0.00,0,Wunderground v.1.15,2013-03-06 07:52:00,
2013-03-06 01:53:00,23.8,20.8,30.30,NW,304,1.0,1.0,88,0.00,,,0.00,0,Wunderground v.1.15,2013-03-06 07:53:00,
2013-03-06 01:55:00,23.8,20.8,30.30,NW,309,1.0,1.0,88,0.00,,,0.00,0,Wunderground v.1.15,2013-03-06 07:55:00,
2013-03-06 02:00:00,23.8,20.8,30.30,NW,308,1.0,1.0,88,0.00,,,0.00,0,Wunderground v.1.15,2013-03-06 08:00:00,
2013-03-06 02:01:00,23.8,20.8,30.30,NW,309,1.0,1.0,88,0.00,,,0.00,0,Wunderground v.1.15,2013-03-06 08:01:00,
2013-03-06 02:06:00,23.9,20.9,30.30,West,260,1.0,2.0,88,0.00,,,0.00,0,Wunderground v.1.15,2013-03-06 08:06:00,
2013-03-06 02:07:00,23.9,20.9,30.31,West,260,1.0,2.0,88,0.00,,,0.00,0,Wunderground v.1.15,2013-03-06 08:07:00,
2013-03-06 02:11:00,24.0,21.0,30.31,WNW,284,2.0,2.0,88,0.00,,,0.00,0,Wunderground v.1.15,2013-03-06 08:11:00,
2013-03-06 02:13:00,24.0,21.0,30.31,NW,308,2.0,4.0,88,0.00,,,0.00,0,Wunderground v.1.15,2013-03-06 08:13:00,
2013-03-06 02:17:00,24.1,21.1,30.31,NW,317,3.0,4.0,88,0.00,,,0.00,0,Wunderground v.1.15,2013-03-06 08:17:00,
2013-03-06 02:18:00,24.1,21.1,30.31,NW,317,3.0,4.0,88,0.00,,,0.00,0,Wunderground v.1.15,2013-03-06 08:18:00,
2013-03-06 02:19:00,24.2,21.2,30.31,NW,304,3.0,4.0,88,0.00,,,0.00,0,Wunderground v.1.15,2013-03-06 08:19:00,
2013-03-06 02:22:00,24.2,21.2,30.31,NNW,328,2.0,3.0,88,0.00,,,0.00,0,Wunderground v.1.15,2013-03-06 08:22:00,
2013-03-06 02:24:00,24.2,21.2,30.31,NW,319,2.0,3.0,88,0.00,,,0.00,0,Wunderground v.1.15,2013-03-06 08:24:00,
2013-03-06 02:28:00,24.2,21.2,30.31,WNW,288,2.0,3.0,88,0.00,,,0.00,0,Wunderground v.1.15,2013-03-06 08:28:00,
2013-03-06 02:30:00,24.2,21.2,30.31,WNW,296,2.0,2.0,88,0.00,,,0.00,0,Wunderground v.1.15,2013-03-06 08:30:00,
2013-03-06 02:33:00,24.2,21.2,30.31,NNW,330,3.0,6.0,88,0.00,,,0.00,0,Wunderground v.1.15,2013-03-06 08:33:00,
2013-03-06 02:34:00,24.2,21.2,30.31,WNW,284,3.0,6.0,88,0.00,,,0.00,0,Wunderground v.1.15,2013-03-06 08:34:00,
2013-03-06 02:37:00,24.2,20.9,30.31,West,281,2.0,6.0,87,0.00,,,0.00,0,Wunderground v.1.15,2013-03-06 08:37:00,
2013-03-06 02:38:00,24.2,20.9,30.31,West,281,2.0,6.0,87,0.00,,,0.00,0,Wunderground v.1.15,2013-03-06 08:38:00,
2013-03-06 02:39:00,24.2,21.2,30.31,West,281,2.0,6.0,88,0.00,,,0.00,0,Wunderground v.1.15,2013-03-06 08:39:00,
2013-03-06 02:42:00,24.2,21.2,30.32,WNW,288,2.0,4.0,88,0.00,,,0.00,0,Wunderground v.1.15,2013-03-06 08:42:00,
2013-03-06 02:45:00,24.3,21.3,30.32,NW,306,2.0,4.0,88,0.00,,,0.00,0,Wunderground v.1.15,2013-03-06 08:45:00,
2013-03-06 02:46:00,24.2,21.2,30.32,NW,324,3.0,8.0,88,0.00,,,0.00,0,Wunderground v.1.15,2013-03-06 08:46:00,
2013-03-06 02:52:00,24.3,21.0,30.32,NW,314,4.0,7.0,87,0.00,,,0.00,0,Wunderground v.1.15,2013-03-06 08:52:00,
2013-03-06 02:54:00,24.4,21.1,30.32,NW,307,4.0,7.0,87,0.00,,,0.00,0,Wunderground v.1.15,2013-03-06 08:54:00,
2013-03-06 02:56:00,24.4,21.1,30.32,WNW,294,4.0,7.0,87,0.00,,,0.00,0,Wunderground v.1.15,2013-03-06 08:56:00,
2013-03-06 02:57:00,24.3,21.0,30.32,NW,313,4.0,7.0,87,0.00,,,0.00,0,Wunderground v.1.15,2013-03-06 08:57:00,
2013-03-06 02:59:00,24.3,21.0,30.32,WNW,289,4.0,7.0,87,0.00,,,0.00,0,Wunderground v.1.15,2013-03-06 08:59:00,
2013-03-06 03:02:00,24.4,21.1,30.32,WSW,248,4.0,7.0,87,0.00,,,0.00,0,Wunderground v.1.15,2013-03-06 09:02:00,
2013-03-06 03:04:00,24.4,21.1,30.32,NW,313,5.0,7.0,87,0.00,,,0.00,0,Wunderground v.1.15,2013-03-06 09:04:00,
2013-03-06 03:05:00,24.4,21.1,30.32,NW,306,5.0,7.0,87,0.00,,,0.00,0,Wunderground v.1.15,2013-03-06 09:05:00,
2013-03-06 03:08:00,24.4,21.1,30.32,NW,305,4.0,7.0,87,0.00,,,0.00,0,Wunderground v.1.15,2013-03-06 09:08:00,
2013-03-06 03:10:00,24.4,21.1,30.32,WNW,301,4.0,4.0,87,0.00,,,0.00,0,Wunderground v.1.15,2013-03-06 09:10:00,
2013-03-06 03:13:00,24.4,21.1,30.32,WNW,294,3.0,5.0,87,0.00,,,0.00,0,Wunderground v.1.15,2013-03-06 09:13:00,
2013-03-06 03:15:00,24.4,21.1,30.32,NW,304,4.0,7.0,87,0.00,,,0.00,0,Wunderground v.1.15,2013-03-06 09:15:00,
2013-03-06 03:16:00,24.3,21.0,30.32,NW,311,4.0,7.0,87,0.00,,,0.00,0,Wunderground v.1.15,2013-03-06 09:16:00,
2013-03-06 03:20:00,24.4,21.1,30.32,WNW,294,3.0,3.0,87,0.00,,,0.00,0,Wunderground v.1.15,2013-03-06 09:20:00,
2013-03-06 03:21:00,24.3,21.0,30.32,WNW,294,3.0,3.0,87,0.00,,,0.00,0,Wunderground v.1.15,2013-03-06 09:21:00,
2013-03-06 03:22:00,24.3,21.0,30.32,WNW,296,3.0,3.0,87,0.00,,,0.00,0,Wunderground v.1.15,2013-03-06 09:22:00,
2013-03-06 03:25:00,24.3,21.0,30.32,WNW,288,3.0,5.0,87,0.00,,,0.00,0,Wunderground v.1.15,2013-03-06 09:25:00,
2013-03-06 03:27:00,24.3,21.0,30.32,West,267,3.0,5.0,87,0.00,,,0.00,0,Wunderground v.1.15,2013-03-06 09:27:00,
2013-03-06 03:30:00,24.3,21.0,30.33,West,262,3.0,3.0,87,0.00,,,0.00,0,Wunderground v.1.15,2013-03-06 09:30:00,
2013-03-06 03:32:00,24.3,21.0,30.33,West,263,3.0,3.0,87,0.00,,,0.00,0,Wunderground v.1.15,2013-03-06 09:32:00,
2013-03-06 03:34:00,24.3,21.0,30.33,West,263,3.0,3.0,87,0.00,,,0.00,0,Wunderground v.1.15,2013-03-06 09:34:00,
2013-03-06 03:35:00,24.3,21.0,30.33,West,263,2.0,3.0,87,0.00,,,0.00,0,Wunderground v.1.15,2013-03-06 09:35:00,
2013-03-06 03:36:00,24.3,21.0,30.33,WNW,288,2.0,4.0,87,0.00,,,0.00,0,Wunderground v.1.15,2013-03-06 09:36:00,
2013-03-06 03:37:00,24.3,21.0,30.33,NW,304,2.0,4.0,87,0.00,,,0.00,0,Wunderground v.1.15,2013-03-06 09:37:00,
2013-03-06 03:39:00,24.3,21.0,30.33,WNW,296,2.0,5.0,87,0.00,,,0.00,0,Wunderground v.1.15,2013-03-06 09:39:00,
2013-03-06 03:40:00,24.3,20.7,30.33,WSW,257,2.0,5.0,86,0.00,,,0.00,0,Wunderground v.1.15,2013-03-06 09:40:00,
2013-03-06 03:41:00,24.3,20.7,30.33,West,266,2.0,5.0,86,0.00,,,0.00,0,Wunderground v.1.15,2013-03-06 09:41:00,
2013-03-06 03:45:00,24.3,20.7,30.33,NNW,334,2.0,5.0,86,0.00,,,0.00,0,Wunderground v.1.15,2013-03-06 09:45:00,
2013-03-06 03:46:00,24.3,20.7,30.33,NW,316,3.0,5.0,86,0.00,,,0.00,0,Wunderground v.1.15,2013-03-06 09:46:00,
2013-03-06 03:49:00,24.3,21.0,30.33,NW,304,3.0,5.0,87,0.00,,,0.00,0,Wunderground v.1.15,2013-03-06 09:49:00,
2013-03-06 03:50:00,24.3,20.7,30.33,West,265,3.0,3.0,86,0.00,,,0.00,0,Wunderground v.1.15,2013-03-06 09:50:00,
2013-03-06 03:55:00,24.3,20.7,30.34,West,262,2.0,5.0,86,0.00,,,0.00,0,Wunderground v.1.15,2013-03-06 09:55:00,
2013-03-06 03:56:00,24.3,20.7,30.34,West,272,2.0,5.0,86,0.00,,,0.00,0,Wunderground v.1.15,2013-03-06 09:56:00,
2013-03-06 03:58:00,24.3,20.7,30.34,West,267,2.0,5.0,86,0.00,,,0.00,0,Wunderground v.1.15,2013-03-06 09:58:00,
2013-03-06 04:01:00,24.3,20.7,30.34,West,267,2.0,2.0,86,0.00,,,0.00,0,Wunderground v.1.15,2013-03-06 10:01:00,
2013-03-06 04:02:00,24.3,20.7,30.34,NW,322,2.0,2.0,86,0.00,,,0.00,0,Wunderground v.1.15,2013-03-06 10:02:00,
2013-03-06 04:03:00,24.3,20.7,30.34,NW,322,2.0,2.0,86,0.00,,,0.00,0,Wunderground v.1.15,2013-03-06 10:03:00,
2013-03-06 04:05:00,24.3,20.7,30.34,WNW,292,2.0,7.0,86,0.00,,,0.00,0,Wunderground v.1.15,2013-03-06 10:05:00,
2013-03-06 04:10:00,24.3,20.7,30.34,WNW,296,3.0,3.0,86,0.00,,,0.00,0,Wunderground v.1.15,2013-03-06 10:10:00,
2013-03-06 04:11:00,24.3,20.7,30.34,WNW,296,3.0,3.0,86,0.00,,,0.00,0,Wunderground v.1.15,2013-03-06 10:11:00,
2013-03-06 04:13:00,24.3,20.7,30.35,West,271,3.0,5.0,86,0.00,,,0.00,0,Wunderground v.1.15,2013-03-06 10:13:00,
2013-03-06 04:15:00,24.3,20.7,30.35,West,271,3.0,5.0,86,0.00,,,0.00,0,Wunderground v.1.15,2013-03-06 10:15:00,
2013-03-06 04:16:00,24.4,20.8,30.35,NW,312,3.0,6.0,86,0.00,,,0.00,0,Wunderground v.1.15,2013-03-06 10:16:00,
2013-03-06 04:17:00,24.4,20.8,30.35,WNW,298,2.0,6.0,86,0.00,,,0.00,0,Wunderground v.1.15,2013-03-06 10:17:00,
2013-03-06 04:21:00,24.4,20.8,30.35,NNW,347,3.0,7.0,86,0.00,,,0.00,0,Wunderground v.1.15,2013-03-06 10:21:00,
2013-03-06 04:26:00,24.4,20.8,30.35,NW,314,4.0,7.0,86,0.00,,,0.00,0,Wunderground v.1.15,2013-03-06 10:26:00,
2013-03-06 04:28:00,24.4,20.5,30.35,NNW,344,3.0,7.0,85,0.00,,,0.00,0,Wunderground v.1.15,2013-03-06 10:28:00,
2013-03-06 04:31:00,24.4,20.5,30.35,NNW,347,4.0,4.0,85,0.00,,,0.00,0,Wunderground v.1.15,2013-03-06 10:31:00,
2013-03-06 04:32:00,24.4,20.5,30.35,WNW,291,3.0,4.0,85,0.00,,,0.00,0,Wunderground v.1.15,2013-03-06 10:32:00,
2013-03-06 04:33:00,24.5,20.6,30.35,NW,315,3.0,4.0,85,0.00,,,0.00,0,Wunderground v.1.15,2013-03-06 10:33:00,
2013-03-06 04:36:00,24.5,20.6,30.35,NW,315,2.0,4.0,85,0.00,,,0.00,0,Wunderground v.1.15,2013-03-06 10:36:00,
2013-03-06 04:40:00,24.5,20.6,30.35,NW,311,2.0,3.0,85,0.00,,,0.00,0,Wunderground v.1.15,2013-03-06 10:40:00,
2013-03-06 04:41:00,24.5,20.6,30.35,NW,305,2.0,4.0,85,0.00,,,0.00,0,Wunderground v.1.15,2013-03-06 10:41:00,
2013-03-06 04:46:00,24.5,20.6,30.35,WNW,300,2.0,4.0,85,0.00,,,0.00,0,Wunderground v.1.15,2013-03-06 10:46:00,
2013-03-06 04:47:00,24.5,20.6,30.35,NW,308,2.0,4.0,85,0.00,,,0.00,0,Wunderground v.1.15,2013-03-06 10:47:00,
2013-03-06 04:51:00,24.5,20.6,30.35,NW,310,2.0,3.0,85,0.00,,,0.00,0,Wunderground v.1.15,2013-03-06 10:51:00,
2013-03-06 04:52:00,24.5,20.6,30.35,WNW,300,2.0,3.0,85,0.00,,,0.00,0,Wunderground v.1.15,2013-03-06 10:52:00,
2013-03-06 04:57:00,24.5,20.6,30.36,NW,313,3.0,6.0,85,0.00,,,0.00,0,Wunderground v.1.15,2013-03-06 10:57:00,
2013-03-06 04:59:00,24.5,20.6,30.36,NNW,332,3.0,6.0,85,0.00,,,0.00,0,Wunderground v.1.15,2013-03-06 10:59:00,
2013-03-06 05:00:00,24.5,20.6,30.36,NNW,329,3.0,3.0,85,0.00,,,0.00,0,Wunderground v.1.15,2013-03-06 11:00:00,
2013-03-06 05:03:00,24.5,20.6,30.36,WNW,294,3.0,3.0,85,0.00,,,0.00,0,Wunderground v.1.15,2013-03-06 11:03:00,
2013-03-06 05:05:00,24.5,20.6,30.36,NW,313,3.0,6.0,85,0.00,,,0.00,0,Wunderground v.1.15,2013-03-06 11:05:00,
2013-03-06 05:08:00,24.5,20.6,30.36,NNW,333,3.0,7.0,85,0.00,,,0.00,0,Wunderground v.1.15,2013-03-06 11:08:00,
2013-03-06 05:10:00,24.5,20.6,30.36,NW,311,3.0,3.0,85,0.00,,,0.00,0,Wunderground v.1.15,2013-03-06 11:10:00,
2013-03-06 05:11:00,24.5,20.9,30.36,WNW,288,3.0,4.0,86,0.00,,,0.00,0,Wunderground v.1.15,2013-03-06 11:11:00,
2013-03-06 05:16:00,24.5,20.9,30.36,NNW,327,3.0,6.0,86,0.00,,,0.00,0,Wunderground v.1.15,2013-03-06 11:16:00,
2013-03-06 05:20:00,24.5,20.9,30.36,WNW,303,3.0,3.0,86,0.00,,,0.00,0,Wunderground v.1.15,2013-03-06 11:20:00,
2013-03-06 05:22:00,24.5,20.9,30.36,NW,304,3.0,3.0,86,0.00,,,0.00,0,Wunderground v.1.15,2013-03-06 11:22:00,
2013-03-06 05:24:00,24.5,20.9,30.37,NNW,327,3.0,4.0,86,0.00,,,0.00,0,Wunderground v.1.15,2013-03-06 11:24:00,
2013-03-06 05:27:00,24.5,20.9,30.37,WNW,286,3.0,4.0,86,0.00,,,0.00,0,Wunderground v.1.15,2013-03-06 11:27:00,
2013-03-06 05:28:00,24.5,20.9,30.37,West,267,3.0,4.0,86,0.00,,,0.00,0,Wunderground v.1.15,2013-03-06 11:28:00,
2013-03-06 05:29:00,24.5,20.9,30.37,WNW,302,3.0,4.0,86,0.00,,,0.00,0,Wunderground v.1.15,2013-03-06 11:29:00,
2013-03-06 05:31:00,24.5,20.9,30.37,NW,309,4.0,7.0,86,0.00,,,0.00,0,Wunderground v.1.15,2013-03-06 11:31:00,
2013-03-06 05:33:00,24.6,21.0,30.37,NW,307,4.0,7.0,86,0.00,,,0.00,0,Wunderground v.1.15,2013-03-06 11:33:00,
2013-03-06 05:34:00,24.6,21.0,30.37,NW,313,4.0,7.0,86,0.00,,,0.00,0,Wunderground v.1.15,2013-03-06 11:34:00,
2013-03-06 05:38:00,24.7,21.1,30.37,NW,308,3.0,7.0,86,0.00,,,0.00,0,Wunderground v.1.15,2013-03-06 11:38:00,
2013-03-06 05:39:00,24.6,21.0,30.37,NW,308,3.0,7.0,86,0.00,,,0.00,0,Wunderground v.1.15,2013-03-06 11:39:00,
2013-03-06 05:44:00,24.7,21.1,30.37,WNW,296,2.0,6.0,86,0.00,,,0.00,0,Wunderground v.1.15,2013-03-06 11:44:00,
2013-03-06 05:45:00,24.7,21.1,30.37,WNW,296,2.0,6.0,86,0.00,,,0.00,0,Wunderground v.1.15,2013-03-06 11:45:00,
2013-03-06 05:47:00,24.7,21.1,30.37,WNW,296,2.0,6.0,86,0.00,,,0.00,0,Wunderground v.1.15,2013-03-06 11:47:00,
2013-03-06 05:50:00,24.7,21.1,30.37,WNW,297,2.0,2.0,86,0.00,,,0.00,0,Wunderground v.1.15,2013-03-06 11:50:00,
2013-03-06 05:52:00,24.7,21.1,30.37,WNW,297,1.0,2.0,86,0.00,,,0.00,0,Wunderground v.1.15,2013-03-06 11:52:00,
2013-03-06 05:53:00,24.7,21.1,30.37,WNW,298,2.0,2.0,86,0.00,,,0.00,0,Wunderground v.1.15,2013-03-06 11:53:00,
2013-03-06 05:57:00,24.7,21.1,30.37,NNW,344,2.0,3.0,86,0.00,,,0.00,0,Wunderground v.1.15,2013-03-06 11:57:00,
2013-03-06 05:59:00,24.6,21.0,30.37,NNW,331,2.0,4.0,86,0.00,,,0.00,0,Wunderground v.1.15,2013-03-06 11:59:00,
2013-03-06 06:04:00,24.6,21.0,30.38,WNW,298,3.0,7.0,86,0.00,,,0.00,0,Wunderground v.1.15,2013-03-06 12:04:00,
2013-03-06 06:09:00,24.6,21.3,30.38,NW,325,4.0,7.0,87,0.00,,,0.00,0,Wunderground v.1.15,2013-03-06 12:09:00,
2013-03-06 06:10:00,24.6,21.3,30.38,NW,310,4.0,4.0,87,0.00,,,0.00,0,Wunderground v.1.15,2013-03-06 12:10:00,
2013-03-06 06:14:00,24.5,21.2,30.38,NNW,346,4.0,6.0,87,0.00,,,0.00,0,Wunderground v.1.15,2013-03-06 12:14:00,
2013-03-06 06:16:00,24.5,21.2,30.38,NW,314,4.0,10.0,87,0.00,,,0.00,0,Wunderground v.1.15,2013-03-06 12:16:00,
2013-03-06 06:17:00,24.5,21.2,30.38,NW,314,4.0,10.0,87,0.00,,,0.00,0,Wunderground v.1.15,2013-03-06 12:17:00,
2013-03-06 06:20:00,24.5,21.2,30.38,WNW,283,4.0,6.0,87,0.00,,,0.00,0,Wunderground v.1.15,2013-03-06 12:20:00,
2013-03-06 06:25:00,24.4,21.1,30.38,West,261,3.0,7.0,87,0.00,,,0.00,0,Wunderground v.1.15,2013-03-06 12:25:00,
2013-03-06 06:26:00,24.4,21.1,30.38,West,280,3.0,7.0,87,0.00,,,0.00,0,Wunderground v.1.15,2013-03-06 12:26:00,
2013-03-06 06:28:00,24.4,21.1,30.38,West,279,3.0,7.0,87,0.00,,,0.00,0,Wunderground v.1.15,2013-03-06 12:28:00,
2013-03-06 06:31:00,24.4,21.1,30.37,West,279,3.0,3.0,87,0.00,,,0.00,0,Wunderground v.1.15,2013-03-06 12:31:00,
2013-03-06 06:32:00,24.3,21.0,30.37,West,279,3.0,3.0,87,0.00,,,0.00,0,Wunderground v.1.15,2013-03-06 12:32:00,
2013-03-06 06:36:00,24.3,21.0,30.38,West,279,1.0,3.0,87,0.00,,,0.00,5,Wunderground v.1.15,2013-03-06 12:36:00,
2013-03-06 06:37:00,24.3,21.0,30.38,WNW,283,1.0,3.0,87,0.00,,,0.00,5,Wunderground v.1.15,2013-03-06 12:37:00,
2013-03-06 06:39:00,24.3,21.0,30.38,West,262,1.0,4.0,87,0.00,,,0.00,5,Wunderground v.1.15,2013-03-06 12:39:00,
2013-03-06 06:43:00,24.3,21.3,30.38,NNW,329,2.0,2.0,88,0.00,,,0.00,7,Wunderground v.1.15,2013-03-06 12:43:00,
2013-03-06 06:46:00,24.3,21.0,30.38,West,271,2.0,4.0,87,0.00,,,0.00,9,Wunderground v.1.15,2013-03-06 12:46:00,
2013-03-06 06:49:00,24.3,21.0,30.38,WNW,299,2.0,4.0,87,0.00,,,0.00,11,Wunderground v.1.15,2013-03-06 12:49:00,
2013-03-06 06:51:00,24.3,21.0,30.38,NW,320,2.0,6.0,87,0.00,,,0.00,12,Wunderground v.1.15,2013-03-06 12:51:00,
2013-03-06 06:52:00,24.3,21.0,30.38,NW,320,2.0,6.0,87,0.00,,,0.00,12,Wunderground v.1.15,2013-03-06 12:52:00,
2013-03-06 06:55:00,24.3,21.0,30.38,NNW,332,2.0,6.0,87,0.00,,,0.00,14,Wunderground v.1.15,2013-03-06 12:55:00,
2013-03-06 06:57:00,24.3,21.0,30.38,NNW,332,2.0,6.0,87,0.00,,,0.00,16,Wunderground v.1.15,2013-03-06 12:57:00,
2013-03-06 06:58:00,24.4,21.1,30.38,NNW,332,2.0,6.0,87,0.00,,,0.00,18,Wunderground v.1.15,2013-03-06 12:58:00,
2013-03-06 07:01:00,24.4,21.1,30.39,NNW,332,2.0,3.0,87,0.00,,,0.00,18,Wunderground v.1.15,2013-03-06 13:01:00,
2013-03-06 07:03:00,24.4,21.1,30.39,NW,306,2.0,3.0,87,0.00,,,0.00,19,Wunderground v.1.15,2013-03-06 13:03:00,
2013-03-06 07:05:00,24.4,21.1,30.39,WNW,300,2.0,3.0,87,0.00,,,0.00,21,Wunderground v.1.15,2013-03-06 13:05:00,
2013-03-06 07:06:00,24.4,21.1,30.39,WNW,300,2.0,3.0,87,0.00,,,0.00,23,Wunderground v.1.15,2013-03-06 13:06:00,
2013-03-06 07:10:00,24.4,20.8,30.39,NW,307,2.0,3.0,86,0.00,,,0.00,23,Wunderground v.1.15,2013-03-06 13:10:00,
2013-03-06 07:11:00,24.4,20.8,30.39,NW,308,2.0,3.0,86,0.00,,,0.00,21,Wunderground v.1.15,2013-03-06 13:11:00,
2013-03-06 07:12:00,24.4,20.8,30.39,NW,307,2.0,3.0,86,0.00,,,0.00,21,Wunderground v.1.15,2013-03-06 13:12:00,
2013-03-06 07:14:00,24.5,20.9,30.39,NW,315,2.0,3.0,86,0.00,,,0.00,26,Wunderground v.1.15,2013-03-06 13:14:00,
2013-03-06 07:17:00,24.5,20.9,30.39,NW,308,2.0,3.0,86,0.00,,,0.00,32,Wunderground v.1.15,2013-03-06 13:17:00,
2013-03-06 07:18:00,24.5,20.9,30.39,West,275,2.0,3.0,86,0.00,,,0.00,33,Wunderground v.1.15,2013-03-06 13:18:00,
2013-03-06 07:20:00,24.5,20.9,30.39,West,267,2.0,2.0,86,0.00,,,0.00,35,Wunderground v.1.15,2013-03-06 13:20:00,
2013-03-06 07:23:00,24.6,21.0,30.39,West,267,1.0,2.0,86,0.00,,,0.00,39,Wunderground v.1.15,2013-03-06 13:23:00,
2013-03-06 07:25:00,24.7,21.1,30.39,WNW,292,1.0,4.0,86,0.00,,,0.00,39,Wunderground v.1.15,2013-03-06 13:25:00,
2013-03-06 07:26:00,24.7,20.8,30.39,West,262,2.0,4.0,85,0.00,,,0.00,39,Wunderground v.1.15,2013-03-06 13:26:00,
2013-03-06 07:32:00,24.7,20.8,30.39,NW,312,2.0,4.0,85,0.00,,,0.00,46,Wunderground v.1.15,2013-03-06 13:32:00,
2013-03-06 07:33:00,24.7,20.8,30.39,NW,312,2.0,4.0,85,0.00,,,0.00,46,Wunderground v.1.15,2013-03-06 13:33:00,
2013-03-06 07:34:00,24.8,20.9,30.39,NW,325,2.0,4.0,85,0.00,,,0.00,46,Wunderground v.1.15,2013-03-06 13:34:00,
2013-03-06 07:35:00,24.7,20.8,30.39,NW,309,2.0,4.0,85,0.00,,,0.00,49,Wunderground v.1.15,2013-03-06 13:35:00,
2013-03-06 07:37:00,24.8,20.9,30.40,NW,313,2.0,4.0,85,0.00,,,0.00,51,Wunderground v.1.15,2013-03-06 13:37:00,
2013-03-06 07:40:00,24.8,20.9,30.40,West,259,2.0,2.0,85,0.00,,,0.00,53,Wunderground v.1.15,2013-03-06 13:40:00,
2013-03-06 07:42:00,24.9,21.0,30.40,NNW,340,2.0,4.0,85,0.00,,,0.00,56,Wunderground v.1.15,2013-03-06 13:42:00,
2013-03-06 07:43:00,24.9,20.8,30.40,NW,304,3.0,4.0,84,0.00,,,0.00,58,Wunderground v.1.15,2013-03-06 13:43:00,
2013-03-06 07:46:00,24.9,21.0,30.40,NW,315,3.0,5.0,85,0.00,,,0.00,62,Wunderground v.1.15,2013-03-06 13:46:00,
2013-03-06 07:48:00,25.0,20.8,30.40,West,271,3.0,5.0,84,0.00,,,0.00,67,Wunderground v.1.15,2013-03-06 13:48:00,
2013-03-06 07:50:00,25.0,20.8,30.40,WNW,294,3.0,3.0,84,0.00,,,0.00,69,Wunderground v.1.15,2013-03-06 13:50:00,
2013-03-06 07:51:00,25.0,20.8,30.40,WNW,303,3.0,3.0,84,0.00,,,0.00,70,Wunderground v.1.15,2013-03-06 13:51:00,
2013-03-06 07:55:00,25.1,20.9,30.40,WNW,289,3.0,4.0,84,0.00,,,0.00,76,Wunderground v.1.15,2013-03-06 13:55:00,
2013-03-06 07:57:00,25.1,20.9,30.40,WNW,289,3.0,4.0,84,0.00,,,0.00,77,Wunderground v.1.15,2013-03-06 13:57:00,
2013-03-06 07:59:00,25.1,20.9,30.40,WNW,282,2.0,4.0,84,0.00,,,0.00,79,Wunderground v.1.15,2013-03-06 13:59:00,
2013-03-06 08:00:00,25.1,20.9,30.40,West,280,2.0,2.0,84,0.00,,,0.00,81,Wunderground v.1.15,2013-03-06 14:00:00,
2013-03-06 08:02:00,25.2,21.0,30.40,NW,313,2.0,3.0,84,0.00,,,0.00,84,Wunderground v.1.15,2013-03-06 14:02:00,
2013-03-06 08:03:00,25.2,21.0,30.40,NW,309,2.0,3.0,84,0.00,,,0.00,86,Wunderground v.1.15,2013-03-06 14:03:00,
2013-03-06 08:07:00,25.2,21.0,30.40,West,279,3.0,5.0,84,0.00,,,0.00,93,Wunderground v.1.15,2013-03-06 14:07:00,
2013-03-06 08:12:00,25.3,21.1,30.41,NNW,333,4.0,4.0,84,0.00,,,0.00,102,Wunderground v.1.15,2013-03-06 14:12:00,
2013-03-06 08:13:00,25.3,21.1,30.41,WNW,293,4.0,4.0,84,0.00,,,0.00,104,Wunderground v.1.15,2013-03-06 14:13:00,
2013-03-06 08:15:00,25.3,21.1,30.41,NW,321,4.0,10.0,84,0.00,,,0.00,105,Wunderground v.1.15,2013-03-06 14:15:00,
2013-03-06 08:19:00,25.3,21.1,30.41,NNW,333,5.0,10.0,84,0.00,,,0.00,116,Wunderground v.1.15,2013-03-06 14:19:00,
2013-03-06 08:22:00,25.3,21.1,30.41,WNW,292,4.0,5.0,84,0.00,,,0.00,118,Wunderground v.1.15,2013-03-06 14:22:00,
2013-03-06 08:23:00,25.4,21.2,30.41,West,275,4.0,5.0,84,0.00,,,0.00,120,Wunderground v.1.15,2013-03-06 14:23:00,
2013-03-06 08:25:00,25.4,21.2,30.41,West,277,4.0,5.0,84,0.00,,,0.00,121,Wunderground v.1.15,2013-03-06 14:25:00,
2013-03-06 08:28:00,25.4,21.2,30.41,NW,313,3.0,6.0,84,0.00,,,0.00,128,Wunderground v.1.15,2013-03-06 14:28:00,
2013-03-06 08:29:00,25.4,21.2,30.41,WNW,287,3.0,6.0,84,0.00,,,0.00,128,Wunderground v.1.15,2013-03-06 14:29:00,
2013-03-06 08:30:00,25.5,21.3,30.41,WNW,303,3.0,3.0,84,0.00,,,0.00,134,Wunderground v.1.15,2013-03-06 14:30:00,
2013-03-06 08:34:00,25.6,21.4,30.41,NW,309,3.0,4.0,84,0.00,,,0.00,137,Wunderground v.1.15,2013-03-06 14:34:00,
2013-03-06 08:37:00,25.6,21.4,30.42,NW,311,3.0,6.0,84,0.00,,,0.00,132,Wunderground v.1.15,2013-03-06 14:37:00,
2013-03-06 08:38:00,25.6,21.4,30.42,NW,309,3.0,6.0,84,0.00,,,0.00,130,Wunderground v.1.15,2013-03-06 14:38:00,
2013-03-06 08:42:00,25.6,21.4,30.42,NW,308,3.0,3.0,84,0.00,,,0.00,130,Wunderground v.1.15,2013-03-06 14:42:00,
2013-03-06 08:44:00,25.7,21.5,30.42,NW,314,3.0,3.0,84,0.00,,,0.00,146,Wunderground v.1.15,2013-03-06 14:44:00,
2013-03-06 08:48:00,25.7,21.5,30.42,NW,317,3.0,6.0,84,0.00,,,0.00,142,Wunderground v.1.15,2013-03-06 14:48:00,
2013-03-06 08:53:00,25.8,21.6,30.42,WNW,290,2.0,3.0,84,0.00,,,0.00,142,Wunderground v.1.15,2013-03-06 14:53:00,
2013-03-06 08:54:00,25.7,21.5,30.42,West,261,2.0,4.0,84,0.00,,,0.00,139,Wunderground v.1.15,2013-03-06 14:54:00,
2013-03-06 08:55:00,25.8,21.6,30.42,NNW,333,3.0,4.0,84,0.00,,,0.00,141,Wunderground v.1.15,2013-03-06 14:55:00,
2013-03-06 08:57:00,25.8,21.6,30.42,NW,318,3.0,5.0,84,0.00,,,0.00,144,Wunderground v.1.15,2013-03-06 14:57:00,
2013-03-06 09:01:00,25.7,21.5,30.42,NNW,340,4.0,5.0,84,0.00,,,0.00,135,Wunderground v.1.15,2013-03-06 15:01:00,
2013-03-06 09:02:00,25.7,21.5,30.42,NW,304,4.0,5.0,84,0.00,,,0.00,139,Wunderground v.1.15,2013-03-06 15:02:00,
2013-03-06 09:04:00,25.7,21.5,30.42,WNW,286,4.0,5.0,84,0.00,,,0.00,144,Wunderground v.1.15,2013-03-06 15:04:00,
2013-03-06 09:06:00,25.6,21.4,30.42,NNW,327,4.0,8.0,84,0.00,,,0.00,142,Wunderground v.1.15,2013-03-06 15:06:00,
2013-03-06 09:07:00,25.6,21.4,30.42,NNW,348,4.0,8.0,84,0.00,,,0.00,144,Wunderground v.1.15,2013-03-06 15:07:00,
2013-03-06 09:09:00,25.6,21.4,30.42,NW,323,4.0,8.0,84,0.00,,,0.00,146,Wunderground v.1.15,2013-03-06 15:09:00,
2013-03-06 09:13:00,25.6,21.4,30.42,WNW,294,4.0,5.0,84,0.00,,,0.00,148,Wunderground v.1.15,2013-03-06 15:13:00,
2013-03-06 09:14:00,25.6,21.4,30.42,NW,309,4.0,5.0,84,0.00,,,0.00,148,Wunderground v.1.15,2013-03-06 15:14:00,
2013-03-06 09:16:00,25.6,21.4,30.42,WNW,290,4.0,7.0,84,0.00,,,0.00,151,Wunderground v.1.15,2013-03-06 15:16:00,
2013-03-06 09:19:00,25.6,21.4,30.42,WNW,291,4.0,7.0,84,0.00,,,0.00,151,Wunderground v.1.15,2013-03-06 15:19:00,
2013-03-06 09:20:00,25.6,21.4,30.42,NNW,333,4.0,4.0,84,0.00,,,0.00,153,Wunderground v.1.15,2013-03-06 15:20:00,
2013-03-06 09:22:00,25.6,21.4,30.42,NW,310,5.0,7.0,84,0.00,,,0.00,158,Wunderground v.1.15,2013-03-06 15:22:00,
2013-03-06 09:23:00,25.6,21.4,30.42,NW,306,5.0,8.0,84,0.00,,,0.00,155,Wunderground v.1.15,2013-03-06 15:23:00,
2013-03-06 09:27:00,25.6,21.4,30.42,NW,311,5.0,8.0,84,0.00,,,0.00,156,Wunderground v.1.15,2013-03-06 15:27:00,
2013-03-06 09:28:00,25.6,21.4,30.42,NW,323,5.0,8.0,84,0.00,,,0.00,158,Wunderground v.1.15,2013-03-06 15:28:00,
2013-03-06 09:31:00,25.6,21.4,30.42,West,280,5.0,5.0,84,0.00,,,0.00,167,Wunderground v.1.15,2013-03-06 15:31:00,
2013-03-06 09:32:00,25.6,21.4,30.42,NW,319,5.0,5.0,84,0.00,,,0.00,167,Wunderground v.1.15,2013-03-06 15:32:00,
2013-03-06 09:33:00,25.6,21.4,30.43,WNW,285,5.0,6.0,84,0.00,,,0.00,167,Wunderground v.1.15,2013-03-06 15:33:00,
2013-03-06 09:36:00,25.6,21.4,30.42,NW,305,5.0,6.0,84,0.00,,,0.00,174,Wunderground v.1.15,2013-03-06 15:36:00,
2013-03-06 09:38:00,25.7,21.5,30.42,NW,306,5.0,6.0,84,0.00,,,0.00,176,Wunderground v.1.15,2013-03-06 15:38:00,
2013-03-06 09:39:00,25.6,21.4,30.42,West,279,5.0,6.0,84,0.00,,,0.00,176,Wunderground v.1.15,2013-03-06 15:39:00,
2013-03-06 09:42:00,25.7,21.5,30.43,West,274,5.0,7.0,84,0.00,,,0.00,190,Wunderground v.1.15,2013-03-06 15:42:00,
2013-03-06 09:44:00,25.6,21.4,30.43,WNW,284,5.0,7.0,84,0.00,,,0.00,193,Wunderground v.1.15,2013-03-06 15:44:00,
2013-03-06 09:45:00,25.7,21.5,30.43,NW,323,5.0,7.0,84,0.00,,,0.00,193,Wunderground v.1.15,2013-03-06 15:45:00,
2013-03-06 09:47:00,25.7,21.5,30.43,NW,309,4.0,7.0,84,0.00,,,0.00,199,Wunderground v.1.15,2013-03-06 15:47:00,
2013-03-06 09:50:00,25.7,21.3,30.43,WNW,284,5.0,10.0,83,0.00,,,0.00,207,Wunderground v.1.15,2013-03-06 15:50:00,
2013-03-06 09:52:00,25.7,21.3,30.43,NW,319,5.0,10.0,83,0.00,,,0.00,239,Wunderground v.1.15,2013-03-06 15:52:00,
2013-03-06 09:56:00,25.8,21.3,30.43,WNW,299,5.0,10.0,83,0.00,,,0.00,255,Wunderground v.1.15,2013-03-06 15:56:00,
2013-03-06 09:57:00,25.8,21.3,30.42,WNW,297,5.0,10.0,83,0.00,,,0.00,276,Wunderground v.1.15,2013-03-06 15:57:00,
2013-03-06 10:02:00,25.9,21.4,30.42,NNW,335,5.0,9.0,83,0.00,,,0.00,250,Wunderground v.1.15,2013-03-06 16:02:00,
2013-03-06 10:03:00,25.9,21.4,30.42,NNW,346,5.0,9.0,83,0.00,,,0.00,255,Wunderground v.1.15,2013-03-06 16:03:00,
2013-03-06 10:04:00,25.9,21.2,30.42,NW,309,5.0,9.0,82,0.00,,,0.00,267,Wunderground v.1.15,2013-03-06 16:04:00,
2013-03-06 10:08:00,26.0,21.5,30.42,WNW,290,4.0,9.0,83,0.00,,,0.00,262,Wunderground v.1.15,2013-03-06 16:08:00,
2013-03-06 10:11:00,26.3,21.8,30.42,North,355,4.0,4.0,83,0.00,,,0.00,294,Wunderground v.1.15,2013-03-06 16:11:00,
2013-03-06 10:12:00,26.3,21.6,30.42,NW,319,3.0,7.0,82,0.00,,,0.00,290,Wunderground v.1.15,2013-03-06 16:12:00,
2013-03-06 10:15:00,26.4,21.7,30.43,NW,305,3.0,7.0,82,0.00,,,0.00,278,Wunderground v.1.15,2013-03-06 16:15:00,
2013-03-06 10:16:00,26.4,21.7,30.42,WNW,301,3.0,7.0,82,0.00,,,0.00,288,Wunderground v.1.15,2013-03-06 16:16:00,
2013-03-06 10:20:00,26.3,21.3,30.43,WNW,288,4.0,9.0,81,0.00,,,0.00,322,Wunderground v.1.15,2013-03-06 16:20:00,
2013-03-06 10:21:00,26.2,21.2,30.42,WNW,295,4.0,9.0,81,0.00,,,0.00,315,Wunderground v.1.15,2013-03-06 16:21:00,
2013-03-06 10:25:00,26.2,21.2,30.43,West,268,6.0,9.0,81,0.00,,,0.00,330,Wunderground v.1.15,2013-03-06 16:25:00,
2013-03-06 10:26:00,26.2,21.2,30.43,NW,311,6.0,9.0,81,0.00,,,0.00,327,Wunderground v.1.15,2013-03-06 16:26:00,
2013-03-06 10:27:00,26.1,21.1,30.43,NNW,344,6.0,9.0,81,0.00,,,0.00,327,Wunderground v.1.15,2013-03-06 16:27:00,
2013-03-06 10:29:00,26.2,21.2,30.42,NNW,331,6.0,9.0,81,0.00,,,0.00,327,Wunderground v.1.15,2013-03-06 16:29:00,
2013-03-06 10:32:00,26.4,21.4,30.43,NNW,335,5.0,8.0,81,0.00,,,0.00,341,Wunderground v.1.15,2013-03-06 16:32:00,
2013-03-06 10:34:00,26.5,21.5,30.43,North,355,5.0,8.0,81,0.00,,,0.00,378,Wunderground v.1.15,2013-03-06 16:34:00,
2013-03-06 10:36:00,26.6,21.6,30.42,NW,304,5.0,8.0,81,0.00,,,0.00,355,Wunderground v.1.15,2013-03-06 16:36:00,
2013-03-06 10:38:00,26.7,21.7,30.42,North,350,4.0,8.0,81,0.00,,,0.00,369,Wunderground v.1.15,2013-03-06 16:38:00,
2013-03-06 10:39:00,26.9,21.8,30.42,WNW,300,4.0,8.0,81,0.00,,,0.00,357,Wunderground v.1.15,2013-03-06 16:39:00,
2013-03-06 10:42:00,26.9,21.6,30.42,NW,325,4.0,7.0,80,0.00,,,0.00,345,Wunderground v.1.15,2013-03-06 16:42:00,
2013-03-06 10:43:00,26.8,21.5,30.42,WNW,295,4.0,7.0,80,0.00,,,0.00,355,Wunderground v.1.15,2013-03-06 16:43:00,
2013-03-06 10:44:00,26.8,21.5,30.42,NNW,340,4.0,7.0,80,0.00,,,0.00,355,Wunderground v.1.15,2013-03-06 16:44:00,
2013-03-06 10:45:00,26.8,21.5,30.42,West,271,4.0,7.0,80,0.00,,,0.00,371,Wunderground v.1.15,2013-03-06 16:45:00,
2013-03-06 10:49:00,26.9,21.6,30.42,NNW,331,5.0,8.0,80,0.00,,,0.00,362,Wunderground v.1.15,2013-03-06 16:49:00,
2013-03-06 10:50:00,27.0,21.7,30.42,WNW,298,5.0,5.0,80,0.00,,,0.00,366,Wunderground v.1.15,2013-03-06 16:50:00,
2013-03-06 10:55:00,26.9,21.3,30.42,SW,234,5.0,10.0,79,0.00,,,0.00,390,Wunderground v.1.15,2013-03-06 16:55:00,
2013-03-06 10:57:00,27.0,21.4,30.42,WNW,298,5.0,10.0,79,0.00,,,0.00,410,Wunderground v.1.15,2013-03-06 16:57:00,
2013-03-06 10:58:00,27.0,21.4,30.42,WSW,257,5.0,10.0,79,0.00,,,0.00,390,Wunderground v.1.15,2013-03-06 16:58:00,
2013-03-06 11:03:00,27.4,21.7,30.42,NW,326,4.0,5.0,79,0.00,,,0.00,392,Wunderground v.1.15,2013-03-06 17:03:00,
2013-03-06 11:04:00,27.5,21.8,30.42,WNW,296,4.0,5.0,79,0.00,,,0.00,396,Wunderground v.1.15,2013-03-06 17:04:00,
2013-03-06 11:06:00,27.5,21.5,30.42,West,261,3.0,7.0,78,0.00,,,0.00,394,Wunderground v.1.15,2013-03-06 17:06:00,
2013-03-06 11:11:00,27.7,21.7,30.42,North,351,3.0,4.0,78,0.00,,,0.00,408,Wunderground v.1.15,2013-03-06 17:11:00,
2013-03-06 11:12:00,27.8,21.8,30.42,NW,316,3.0,4.0,78,0.00,,,0.00,413,Wunderground v.1.15,2013-03-06 17:12:00,
2013-03-06 11:13:00,27.7,21.7,30.42,NNW,329,3.0,4.0,78,0.00,,,0.00,422,Wunderground v.1.15,2013-03-06 17:13:00,
2013-03-06 11:17:00,27.7,21.7,30.42,WNW,302,3.0,8.0,78,0.00,,,0.00,431,Wunderground v.1.15,2013-03-06 17:17:00,
2013-03-06 11:22:00,27.9,21.6,30.42,NNW,328,4.0,4.0,77,0.00,,,0.00,404,Wunderground v.1.15,2013-03-06 17:22:00,
2013-03-06 11:23:00,27.9,21.6,30.42,West,271,4.0,4.0,77,0.00,,,0.00,401,Wunderground v.1.15,2013-03-06 17:23:00,
2013-03-06 11:24:00,27.9,21.6,30.42,NNW,343,4.0,7.0,77,0.00,,,0.00,397,Wunderground v.1.15,2013-03-06 17:24:00,
2013-03-06 11:29:00,27.7,21.4,30.43,NNW,335,4.0,7.0,77,0.00,,,0.00,424,Wunderground v.1.15,2013-03-06 17:29:00,
2013-03-06 11:30:00,27.8,21.5,30.43,WNW,299,4.0,7.0,77,0.00,,,0.00,422,Wunderground v.1.15,2013-03-06 17:30:00,
2013-03-06 11:33:00,27.8,21.2,30.42,NW,310,5.0,7.0,76,0.00,,,0.00,425,Wunderground v.1.15,2013-03-06 17:33:00,
2013-03-06 11:36:00,27.8,21.2,30.42,West,269,5.0,7.0,76,0.00,,,0.00,422,Wunderground v.1.15,2013-03-06 17:36:00,
2013-03-06 11:38:00,27.8,21.2,30.42,West,275,5.0,8.0,76,0.00,,,0.00,424,Wunderground v.1.15,2013-03-06 17:38:00,
2013-03-06 11:40:00,27.6,21.0,30.42,WNW,290,5.0,5.0,76,0.00,,,0.00,406,Wunderground v.1.15,2013-03-06 17:40:00,
2013-03-06 11:41:00,27.6,21.0,30.42,WSW,250,5.0,5.0,76,0.00,,,0.00,401,Wunderground v.1.15,2013-03-06 17:41:00,
2013-03-06 11:42:00,27.6,21.0,30.42,WNW,301,5.0,5.0,76,0.00,,,0.00,401,Wunderground v.1.15,2013-03-06 17:42:00,
2013-03-06 11:47:00,27.7,21.1,30.42,NNW,340,5.0,7.0,76,0.00,,,0.00,418,Wunderground v.1.15,2013-03-06 17:47:00,
2013-03-06 11:48:00,27.7,21.1,30.42,NNW,331,5.0,7.0,76,0.00,,,0.00,425,Wunderground v.1.15,2013-03-06 17:48:00,
2013-03-06 11:49:00,27.7,21.1,30.42,SW,229,5.0,7.0,76,0.00,,,0.00,448,Wunderground v.1.15,2013-03-06 17:49:00,
2013-03-06 11:54:00,27.9,21.3,30.42,NW,304,4.0,9.0,76,0.00,,,0.00,443,Wunderground v.1.15,2013-03-06 17:54:00,
2013-03-06 11:55:00,27.9,21.3,30.42,West,261,4.0,9.0,76,0.00,,,0.00,443,Wunderground v.1.15,2013-03-06 17:55:00,
2013-03-06 11:56:00,27.9,21.3,30.42,WSW,244,4.0,9.0,76,0.00,,,0.00,424,Wunderground v.1.15,2013-03-06 17:56:00,
2013-03-06 11:58:00,28.1,21.5,30.42,NW,319,4.0,9.0,76,0.00,,,0.00,413,Wunderground v.1.15,2013-03-06 17:58:00,
2013-03-06 12:00:00,28.1,21.2,30.42,NW,309,4.0,4.0,75,0.00,,,0.00,404,Wunderground v.1.15,2013-03-06 18:00:00,
2013-03-06 12:01:00,28.2,21.3,30.42,NNW,339,4.0,4.0,75,0.00,,,0.00,399,Wunderground v.1.15,2013-03-06 18:01:00,
2013-03-06 12:02:00,28.3,21.7,30.42,NNW,338,4.0,4.0,76,0.00,,,0.00,404,Wunderground v.1.15,2013-03-06 18:02:00,
2013-03-06 12:05:00,28.5,21.6,30.42,North,360,3.0,6.0,75,0.00,,,0.00,434,Wunderground v.1.15,2013-03-06 18:05:00,
2013-03-06 12:07:00,28.5,21.6,30.42,West,266,3.0,6.0,75,0.00,,,0.00,439,Wunderground v.1.15,2013-03-06 18:07:00,
2013-03-06 12:10:00,28.6,21.7,30.42,WNW,289,3.0,3.0,75,0.00,,,0.00,424,Wunderground v.1.15,2013-03-06 18:10:00,
2013-03-06 12:11:00,28.6,21.7,30.42,WNW,289,3.0,3.0,75,0.00,,,0.00,425,Wunderground v.1.15,2013-03-06 18:11:00,
2013-03-06 12:12:00,28.6,21.7,30.42,WNW,289,3.0,3.0,75,0.00,,,0.00,425,Wunderground v.1.15,2013-03-06 18:12:00,
2013-03-06 12:13:00,28.6,21.7,30.42,NNW,340,3.0,6.0,75,0.00,,,0.00,446,Wunderground v.1.15,2013-03-06 18:13:00,
2013-03-06 12:18:00,28.3,21.4,30.42,WSW,250,3.0,7.0,75,0.00,,,0.00,446,Wunderground v.1.15,2013-03-06 18:18:00,
2013-03-06 12:19:00,28.3,21.4,30.42,NW,304,3.0,7.0,75,0.00,,,0.00,450,Wunderground v.1.15,2013-03-06 18:19:00,
2013-03-06 12:20:00,28.4,21.5,30.42,NNW,331,3.0,5.0,75,0.00,,,0.00,446,Wunderground v.1.15,2013-03-06 18:20:00,
2013-03-06 12:25:00,28.7,21.8,30.41,NW,309,2.0,5.0,75,0.00,,,0.00,434,Wunderground v.1.15,2013-03-06 18:25:00,
2013-03-06 12:26:00,28.8,21.9,30.41,NW,309,2.0,5.0,75,0.00,,,0.00,443,Wunderground v.1.15,2013-03-06 18:26:00,
2013-03-06 12:27:00,29.0,22.1,30.42,NW,305,2.0,5.0,75,0.00,,,0.00,439,Wunderground v.1.15,2013-03-06 18:27:00,
2013-03-06 12:32:00,28.9,21.7,30.42,WNW,299,2.0,3.0,74,0.00,,,0.00,432,Wunderground v.1.15,2013-03-06 18:32:00,
2013-03-06 12:33:00,29.0,21.7,30.42,WNW,295,2.0,3.0,74,0.00,,,0.00,413,Wunderground v.1.15,2013-03-06 18:33:00,
2013-03-06 12:35:00,29.0,21.7,30.41,WNW,295,2.0,3.0,74,0.00,,,0.00,394,Wunderground v.1.15,2013-03-06 18:35:00,
2013-03-06 12:37:00,29.2,21.9,30.42,WNW,290,2.0,6.0,74,0.00,,,0.00,427,Wunderground v.1.15,2013-03-06 18:37:00,
2013-03-06 12:41:00,29.2,21.6,30.42,West,280,1.0,7.0,73,0.00,,,0.00,422,Wunderground v.1.15,2013-03-06 18:41:00,
2013-03-06 12:44:00,28.9,21.3,30.41,WSW,255,3.0,7.0,73,0.00,,,0.00,418,Wunderground v.1.15,2013-03-06 18:44:00,
2013-03-06 12:46:00,28.6,21.4,30.41,West,261,3.0,7.0,74,0.00,,,0.00,401,Wunderground v.1.15,2013-03-06 18:46:00,
2013-03-06 12:47:00,28.5,20.9,30.42,SW,228,3.0,7.0,73,0.00,,,0.00,394,Wunderground v.1.15,2013-03-06 18:47:00,
2013-03-06 12:48:00,28.4,20.8,30.41,WNW,296,3.0,7.0,73,0.00,,,0.00,410,Wunderground v.1.15,2013-03-06 18:48:00,
2013-03-06 12:49:00,28.4,21.2,30.41,NW,313,3.0,7.0,74,0.00,,,0.00,418,Wunderground v.1.15,2013-03-06 18:49:00,
2013-03-06 12:52:00,28.6,21.4,30.41,West,279,3.0,11.0,74,0.00,,,0.00,411,Wunderground v.1.15,2013-03-06 18:52:00,
2013-03-06 12:54:00,28.6,21.4,30.41,West,275,4.0,11.0,74,0.00,,,0.00,434,Wunderground v.1.15,2013-03-06 18:54:00,
2013-03-06 12:55:00,28.6,21.0,30.41,West,275,4.0,11.0,73,0.00,,,0.00,429,Wunderground v.1.15,2013-03-06 18:55:00,
2013-03-06 12:56:00,28.6,21.0,30.41,West,269,3.0,11.0,73,0.00,,,0.00,420,Wunderground v.1.15,2013-03-06 18:56:00,
2013-03-06 13:01:00,28.6,21.4,30.41,WNW,292,4.0,4.0,74,0.00,,,0.00,452,Wunderground v.1.15,2013-03-06 19:01:00,
2013-03-06 13:04:00,28.8,21.6,30.41,West,279,3.0,4.0,74,0.00,,,0.00,459,Wunderground v.1.15,2013-03-06 19:04:00,
2013-03-06 13:06:00,28.9,21.7,30.41,West,271,3.0,4.0,74,0.00,,,0.00,417,Wunderground v.1.15,2013-03-06 19:06:00,
2013-03-06 13:10:00,29.1,21.5,30.41,NW,313,2.0,5.0,73,0.00,,,0.00,399,Wunderground v.1.15,2013-03-06 19:10:00,
2013-03-06 13:11:00,29.1,21.5,30.41,WNW,294,2.0,6.0,73,0.00,,,0.00,390,Wunderground v.1.15,2013-03-06 19:11:00,
2013-03-06 13:12:00,29.0,21.4,30.41,NW,317,3.0,8.0,73,0.00,,,0.00,387,Wunderground v.1.15,2013-03-06 19:12:00,
2013-03-06 13:14:00,28.9,21.3,30.41,NW,317,3.0,8.0,73,0.00,,,0.00,383,Wunderground v.1.15,2013-03-06 19:14:00,
2013-03-06 13:17:00,28.8,21.2,30.41,WNW,290,5.0,10.0,73,0.00,,,0.00,373,Wunderground v.1.15,2013-03-06 19:17:00,
2013-03-06 13:19:00,28.6,20.7,30.41,West,281,5.0,10.0,72,0.00,,,0.00,378,Wunderground v.1.15,2013-03-06 19:19:00,
2013-03-06 13:20:00,28.6,20.7,30.41,North,355,5.0,5.0,72,0.00,,,0.00,376,Wunderground v.1.15,2013-03-06 19:20:00,
2013-03-06 13:21:00,28.6,21.0,30.41,NW,316,5.0,7.0,73,0.00,,,0.00,374,Wunderground v.1.15,2013-03-06 19:21:00,
2013-03-06 13:26:00,28.5,20.9,30.41,WNW,303,5.0,7.0,73,0.00,,,0.00,394,Wunderground v.1.15,2013-03-06 19:26:00,
2013-03-06 13:27:00,28.5,20.9,30.41,NNE,17,5.0,7.0,73,0.00,,,0.00,394,Wunderground v.1.15,2013-03-06 19:27:00,
2013-03-06 13:28:00,28.4,20.8,30.41,NNW,347,5.0,7.0,73,0.00,,,0.00,399,Wunderground v.1.15,2013-03-06 19:28:00,
2013-03-06 13:31:00,28.3,20.7,30.40,NNW,346,5.0,5.0,73,0.00,,,0.00,394,Wunderground v.1.15,2013-03-06 19:31:00,
2013-03-06 13:32:00,28.5,20.9,30.40,North,350,5.0,7.0,73,0.00,,,0.00,387,Wunderground v.1.15,2013-03-06 19:32:00,
2013-03-06 13:36:00,28.5,20.9,30.41,WNW,296,5.0,7.0,73,0.00,,,0.00,376,Wunderground v.1.15,2013-03-06 19:36:00,
2013-03-06 13:37:00,28.4,20.8,30.41,NNW,337,5.0,7.0,73,0.00,,,0.00,374,Wunderground v.1.15,2013-03-06 19:37:00,
2013-03-06 13:40:00,28.4,20.8,30.41,WNW,298,5.0,5.0,73,0.00,,,0.00,380,Wunderground v.1.15,2013-03-06 19:40:00,
2013-03-06 13:43:00,28.6,21.0,30.41,West,267,4.0,5.0,73,0.00,,,0.00,374,Wunderground v.1.15,2013-03-06 19:43:00,
2013-03-06 13:44:00,28.6,21.0,30.41,West,281,4.0,5.0,73,0.00,,,0.00,376,Wunderground v.1.15,2013-03-06 19:44:00,
2013-03-06 13:45:00,28.6,21.0,30.41,NW,308,4.0,5.0,73,0.00,,,0.00,378,Wunderground v.1.15,2013-03-06 19:45:00,
2013-03-06 13:47:00,28.6,21.0,30.41,WNW,297,4.0,5.0,73,0.00,,,0.00,374,Wunderground v.1.15,2013-03-06 19:47:00,
2013-03-06 13:51:00,28.7,20.8,30.41,WNW,295,4.0,10.0,72,0.00,,,0.00,390,Wunderground v.1.15,2013-03-06 19:51:00,
2013-03-06 13:52:00,28.7,21.1,30.41,West,263,4.0,10.0,73,0.00,,,0.00,397,Wunderground v.1.15,2013-03-06 19:52:00,
2013-03-06 13:53:00,28.7,21.1,30.40,West,263,4.0,10.0,73,0.00,,,0.00,399,Wunderground v.1.15,2013-03-06 19:53:00,
2013-03-06 13:57:00,28.8,21.2,30.41,NNW,335,4.0,10.0,73,0.00,,,0.00,388,Wunderground v.1.15,2013-03-06 19:57:00,
2013-03-06 13:58:00,28.8,21.2,30.40,NNW,335,3.0,10.0,73,0.00,,,0.00,390,Wunderground v.1.15,2013-03-06 19:58:00,
2013-03-06 13:59:00,28.9,21.3,30.41,NNW,337,3.0,10.0,73,0.00,,,0.00,396,Wunderground v.1.15,2013-03-06 19:59:00,
2013-03-06 14:05:00,28.7,21.1,30.40,West,274,3.0,8.0,73,0.00,,,0.00,422,Wunderground v.1.15,2013-03-06 20:05:00,
2013-03-06 14:08:00,28.7,20.8,30.41,West,264,3.0,8.0,72,0.00,,,0.00,441,Wunderground v.1.15,2013-03-06 20:08:00,
2013-03-06 14:11:00,29.1,21.5,30.41,WNW,288,3.0,6.0,73,0.00,,,0.00,425,Wunderground v.1.15,2013-03-06 20:11:00,
2013-03-06 14:12:00,29.2,21.3,30.41,NW,304,3.0,6.0,72,0.00,,,0.00,410,Wunderground v.1.15,2013-03-06 20:12:00,
2013-03-06 14:13:00,29.2,21.3,30.41,WNW,294,3.0,6.0,72,0.00,,,0.00,425,Wunderground v.1.15,2013-03-06 20:13:00,
2013-03-06 14:15:00,29.0,20.8,30.41,West,277,3.0,6.0,71,0.00,,,0.00,399,Wunderground v.1.15,2013-03-06 20:15:00,
2013-03-06 14:19:00,28.9,21.0,30.41,West,281,2.0,6.0,72,0.00,,,0.00,397,Wunderground v.1.15,2013-03-06 20:19:00,
2013-03-06 14:20:00,28.9,21.0,30.41,ENE,76,2.0,2.0,72,0.00,,,0.00,406,Wunderground v.1.15,2013-03-06 20:20:00,
2013-03-06 14:23:00,29.1,20.9,30.41,North,360,1.0,2.0,71,0.00,,,0.00,434,Wunderground v.1.15,2013-03-06 20:23:00,
2013-03-06 14:24:00,29.2,21.3,30.41,North,355,1.0,2.0,72,0.00,,,0.00,429,Wunderground v.1.15,2013-03-06 20:24:00,
2013-03-06 14:30:00,29.7,21.4,30.41,WNW,292,1.0,2.0,71,0.00,,,0.00,513,Wunderground v.1.15,2013-03-06 20:30:00,
2013-03-06 14:34:00,29.4,20.5,30.41,WSW,249,2.0,5.0,69,0.00,,,0.00,383,Wunderground v.1.15,2013-03-06 20:34:00,
2013-03-06 14:35:00,29.4,20.8,30.41,WSW,252,3.0,5.0,70,0.00,,,0.00,383,Wunderground v.1.15,2013-03-06 20:35:00,
2013-03-06 14:37:00,29.5,20.9,30.41,WNW,287,3.0,6.0,70,0.00,,,0.00,383,Wunderground v.1.15,2013-03-06 20:37:00,
2013-03-06 14:39:00,29.6,20.7,30.41,WSW,240,4.0,6.0,69,0.00,,,0.00,621,Wunderground v.1.15,2013-03-06 20:39:00,
2013-03-06 14:43:00,29.4,20.5,30.41,SW,228,3.0,6.0,69,0.00,,,0.00,728,Wunderground v.1.15,2013-03-06 20:43:00,
2013-03-06 14:45:00,29.2,20.6,30.41,SW,234,3.0,6.0,70,0.00,,,0.00,703,Wunderground v.1.15,2013-03-06 20:45:00,
2013-03-06 14:46:00,29.3,20.7,30.41,SW,215,3.0,6.0,70,0.00,,,0.00,696,Wunderground v.1.15,2013-03-06 20:46:00,
2013-03-06 14:47:00,29.4,20.8,30.41,SW,229,3.0,6.0,70,0.00,,,0.00,686,Wunderground v.1.15,2013-03-06 20:47:00,
2013-03-06 14:48:00,29.7,21.1,30.41,WSW,250,3.0,6.0,70,0.00,,,0.00,686,Wunderground v.1.15,2013-03-06 20:48:00,
2013-03-06 14:50:00,30.0,21.1,30.41,NNW,342,3.0,3.0,69,0.00,,,0.00,642,Wunderground v.1.15,2013-03-06 20:50:00,
2013-03-06 14:51:00,30.2,21.9,30.41,NNW,342,3.0,3.0,71,0.00,,,0.00,642,Wunderground v.1.15,2013-03-06 20:51:00,
2013-03-06 14:52:00,30.2,21.6,30.41,NNW,342,2.0,3.0,70,0.00,,,0.00,642,Wunderground v.1.15,2013-03-06 20:52:00,
2013-03-06 14:55:00,30.1,21.2,30.41,WSW,250,2.0,4.0,69,0.00,,,0.00,584,Wunderground v.1.15,2013-03-06 20:55:00,
2013-03-06 14:57:00,30.0,20.7,30.40,WSW,254,2.0,6.0,68,0.00,,,0.00,564,Wunderground v.1.15,2013-03-06 20:57:00,
2013-03-06 14:59:00,30.1,20.8,30.40,WSW,242,2.0,6.0,68,0.00,,,0.00,575,Wunderground v.1.15,2013-03-06 20:59:00,
2013-03-06 15:01:00,29.8,20.2,30.41,West,277,3.0,4.0,67,0.00,,,0.00,167,Wunderground v.1.15,2013-03-06 21:01:00,
2013-03-06 15:03:00,29.4,20.1,30.40,WNW,283,3.0,4.0,68,0.00,,,0.00,341,Wunderground v.1.15,2013-03-06 21:03:00,
2013-03-06 15:07:00,29.4,20.5,30.40,SW,226,3.0,5.0,69,0.00,,,0.00,490,Wunderground v.1.15,2013-03-06 21:07:00,
2013-03-06 15:09:00,29.4,20.5,30.40,WSW,239,3.0,5.0,69,0.00,,,0.00,388,Wunderground v.1.15,2013-03-06 21:09:00,
2013-03-06 15:12:00,29.6,20.3,30.40,WNW,290,3.0,6.0,68,0.00,,,0.00,151,Wunderground v.1.15,2013-03-06 21:12:00,
2013-03-06 15:14:00,29.6,20.3,30.40,NW,319,3.0,6.0,68,0.00,,,0.00,466,Wunderground v.1.15,2013-03-06 21:14:00,
2013-03-06 15:17:00,29.3,20.0,30.40,WNW,286,4.0,6.0,68,0.00,,,0.00,297,Wunderground v.1.15,2013-03-06 21:17:00,
2013-03-06 15:20:00,29.3,20.0,30.40,WNW,289,4.0,4.0,68,0.00,,,0.00,425,Wunderground v.1.15,2013-03-06 21:20:00,
2013-03-06 15:21:00,29.4,19.8,30.40,NW,319,4.0,7.0,67,0.00,,,0.00,420,Wunderground v.1.15,2013-03-06 21:21:00,
2013-03-06 15:22:00,29.4,19.8,30.40,WNW,296,4.0,7.0,67,0.00,,,0.00,420,Wunderground v.1.15,2013-03-06 21:22:00,
2013-03-06 15:25:00,29.5,19.9,30.40,WNW,297,4.0,7.0,67,0.00,,,0.00,406,Wunderground v.1.15,2013-03-06 21:25:00,
2013-03-06 15:27:00,29.6,20.0,30.40,WNW,284,4.0,7.0,67,0.00,,,0.00,403,Wunderground v.1.15,2013-03-06 21:27:00,
2013-03-06 15:30:00,29.8,20.2,30.40,West,263,3.0,3.0,67,0.00,,,0.00,392,Wunderground v.1.15,2013-03-06 21:30:00,
2013-03-06 15:31:00,29.8,20.2,30.40,West,263,3.0,3.0,67,0.00,,,0.00,388,Wunderground v.1.15,2013-03-06 21:31:00,
2013-03-06 15:32:00,29.8,20.2,30.40,West,263,3.0,3.0,67,0.00,,,0.00,387,Wunderground v.1.15,2013-03-06 21:32:00,
2013-03-06 15:33:00,30.1,20.8,30.40,WNW,298,3.0,5.0,68,0.00,,,0.00,383,Wunderground v.1.15,2013-03-06 21:33:00,
2013-03-06 15:36:00,30.2,20.2,30.40,NW,311,2.0,5.0,66,0.00,,,0.00,373,Wunderground v.1.15,2013-03-06 21:36:00,
2013-03-06 15:39:00,30.1,20.1,30.40,SW,229,1.0,5.0,66,0.00,,,0.00,367,Wunderground v.1.15,2013-03-06 21:39:00,
2013-03-06 15:40:00,30.1,20.5,30.40,NW,318,1.0,3.0,67,0.00,,,0.00,366,Wunderground v.1.15,2013-03-06 21:40:00,
2013-03-06 15:44:00,30.1,20.1,30.40,WSW,243,1.0,3.0,66,0.00,,,0.00,353,Wunderground v.1.15,2013-03-06 21:44:00,
2013-03-06 15:45:00,30.1,20.5,30.40,WSW,246,1.0,3.0,67,0.00,,,0.00,353,Wunderground v.1.15,2013-03-06 21:45:00,
2013-03-06 15:49:00,30.0,20.0,30.40,SSW,213,2.0,6.0,66,0.00,,,0.00,339,Wunderground v.1.15,2013-03-06 21:49:00,
2013-03-06 15:51:00,30.0,20.4,30.40,WSW,244,2.0,6.0,67,0.00,,,0.00,334,Wunderground v.1.15,2013-03-06 21:51:00,
2013-03-06 15:52:00,30.0,20.0,30.40,WSW,239,2.0,6.0,66,0.00,,,0.00,332,Wunderground v.1.15,2013-03-06 21:52:00,
2013-03-06 15:57:00,29.9,19.9,30.40,WSW,238,3.0,6.0,66,0.00,,,0.00,308,Wunderground v.1.15,2013-03-06 21:57:00,
2013-03-06 15:58:00,29.8,19.8,30.40,WSW,238,3.0,6.0,66,0.00,,,0.00,311,Wunderground v.1.15,2013-03-06 21:58:00,
2013-03-06 16:02:00,30.2,20.6,30.40,West,279,2.0,3.0,67,0.00,,,0.00,299,Wunderground v.1.15,2013-03-06 22:02:00,
2013-03-06 16:03:00,30.3,20.3,30.40,WSW,239,2.0,3.0,66,0.00,,,0.00,295,Wunderground v.1.15,2013-03-06 22:03:00,
2013-03-06 16:05:00,30.3,20.3,30.40,WNW,284,2.0,5.0,66,0.00,,,0.00,278,Wunderground v.1.15,2013-03-06 22:05:00,
2013-03-06 16:06:00,30.2,19.8,30.40,WNW,284,2.0,5.0,65,0.00,,,0.00,283,Wunderground v.1.15,2013-03-06 22:06:00,
2013-03-06 16:08:00,30.2,20.2,30.40,WSW,253,2.0,5.0,66,0.00,,,0.00,281,Wunderground v.1.15,2013-03-06 22:08:00,
2013-03-06 16:11:00,30.0,20.0,30.40,WSW,238,3.0,3.0,66,0.00,,,0.00,272,Wunderground v.1.15,2013-03-06 22:11:00,
2013-03-06 16:12:00,29.9,19.6,30.40,SW,214,3.0,3.0,65,0.00,,,0.00,267,Wunderground v.1.15,2013-03-06 22:12:00,
2013-03-06 16:13:00,29.8,19.8,30.40,WNW,283,3.0,3.0,66,0.00,,,0.00,264,Wunderground v.1.15,2013-03-06 22:13:00,
2013-03-06 16:14:00,29.9,19.9,30.40,WSW,248,3.0,3.0,66,0.00,,,0.00,260,Wunderground v.1.15,2013-03-06 22:14:00,
2013-03-06 16:16:00,30.1,20.5,30.40,WSW,248,2.0,3.0,67,0.00,,,0.00,253,Wunderground v.1.15,2013-03-06 22:16:00,
2013-03-06 16:19:00,30.1,20.1,30.39,WSW,248,2.0,3.0,66,0.00,,,0.00,241,Wunderground v.1.15,2013-03-06 22:19:00,
2013-03-06 16:22:00,30.1,20.1,30.39,WSW,250,1.0,3.0,66,0.00,,,0.00,232,Wunderground v.1.15,2013-03-06 22:22:00,
2013-03-06 16:23:00,30.0,20.0,30.39,WSW,250,1.0,3.0,66,0.00,,,0.00,225,Wunderground v.1.15,2013-03-06 22:23:00,
2013-03-06 16:24:00,30.0,20.0,30.39,WSW,250,1.0,3.0,66,0.00,,,0.00,225,Wunderground v.1.15,2013-03-06 22:24:00,
2013-03-06 16:28:00,30.0,20.0,30.39,SW,228,2.0,3.0,66,0.00,,,0.00,209,Wunderground v.1.15,2013-03-06 22:28:00,
2013-03-06 16:31:00,29.9,19.9,30.39,WNW,286,2.0,7.0,66,0.00,,,0.00,199,Wunderground v.1.15,2013-03-06 22:31:00,
2013-03-06 16:34:00,29.9,19.9,30.39,WNW,300,3.0,7.0,66,0.00,,,0.00,188,Wunderground v.1.15,2013-03-06 22:34:00,
2013-03-06 16:38:00,30.0,20.0,30.39,WNW,292,2.0,7.0,66,0.00,,,0.00,172,Wunderground v.1.15,2013-03-06 22:38:00,
2013-03-06 16:40:00,29.9,19.9,30.39,WNW,292,2.0,2.0,66,0.00,,,0.00,165,Wunderground v.1.15,2013-03-06 22:40:00,
2013-03-06 16:44:00,29.8,19.8,30.39,WNW,288,1.0,2.0,66,0.00,,,0.00,151,Wunderground v.1.15,2013-03-06 22:44:00,
2013-03-06 16:47:00,29.7,19.7,30.39,WNW,288,1.0,2.0,66,0.00,,,0.00,141,Wunderground v.1.15,2013-03-06 22:47:00,
2013-03-06 16:51:00,29.5,19.5,30.39,WNW,288,1.0,1.0,66,0.00,,,0.00,127,Wunderground v.1.15,2013-03-06 22:51:00,
2013-03-06 16:52:00,29.4,19.4,30.39,WNW,288,1.0,1.0,66,0.00,,,0.00,123,Wunderground v.1.15,2013-03-06 22:52:00,
2013-03-06 16:53:00,29.3,19.7,30.39,WNW,288,1.0,1.0,67,0.00,,,0.00,118,Wunderground v.1.15,2013-03-06 22:53:00,
2013-03-06 16:54:00,29.3,19.7,30.39,WNW,288,1.0,1.0,67,0.00,,,0.00,114,Wunderground v.1.15,2013-03-06 22:54:00,
2013-03-06 16:57:00,29.6,20.0,30.39,WNW,288,0.0,1.0,67,0.00,,,0.00,105,Wunderground v.1.15,2013-03-06 22:57:00,
2013-03-06 16:58:00,29.6,19.6,30.39,WNW,288,0.0,1.0,66,0.00,,,0.00,100,Wunderground v.1.15,2013-03-06 22:58:00,
2013-03-06 16:59:00,29.7,20.1,30.39,WNW,288,0.0,1.0,67,0.00,,,0.00,98,Wunderground v.1.15,2013-03-06 22:59:00,
2013-03-06 17:02:00,29.6,19.6,30.39,WNW,288,0.0,0.0,66,0.00,,,0.00,90,Wunderground v.1.15,2013-03-06 23:02:00,
2013-03-06 17:05:00,29.5,19.5,30.39,WNW,284,0.0,2.0,66,0.00,,,0.00,81,Wunderground v.1.15,2013-03-06 23:05:00,
2013-03-06 17:09:00,29.2,19.2,30.39,WNW,284,1.0,2.0,66,0.00,,,0.00,69,Wunderground v.1.15,2013-03-06 23:09:00,
2013-03-06 17:11:00,28.9,19.3,30.40,WNW,284,1.0,2.0,67,0.00,,,0.00,62,Wunderground v.1.15,2013-03-06 23:11:00,
2013-03-06 17:12:00,28.9,19.3,30.40,WNW,284,1.0,2.0,67,0.00,,,0.00,60,Wunderground v.1.15,2013-03-06 23:12:00,
2013-03-06 17:13:00,28.7,19.1,30.40,WNW,284,1.0,2.0,67,0.00,,,0.00,56,Wunderground v.1.15,2013-03-06 23:13:00,
2013-03-06 17:18:00,28.3,19.1,30.40,WNW,284,1.0,2.0,68,0.00,,,0.00,26,Wunderground v.1.15,2013-03-06 23:18:00,
2013-03-06 17:20:00,28.3,19.1,30.40,WNW,284,1.0,1.0,68,0.00,,,0.00,26,Wunderground v.1.15,2013-03-06 23:20:00,
2013-03-06 17:23:00,28.2,19.0,30.40,WNW,284,1.0,2.0,68,0.00,,,0.00,25,Wunderground v.1.15,2013-03-06 23:23:00,
2013-03-06 17:24:00,28.2,19.0,30.40,WNW,284,1.0,2.0,68,0.00,,,0.00,25,Wunderground v.1.15,2013-03-06 23:24:00,
2013-03-06 17:26:00,28.2,19.0,30.40,WNW,284,1.0,2.0,68,0.00,,,0.00,23,Wunderground v.1.15,2013-03-06 23:26:00,
2013-03-06 17:29:00,28.1,18.9,30.40,WNW,284,1.0,2.0,68,0.00,,,0.00,21,Wunderground v.1.15,2013-03-06 23:29:00,
2013-03-06 17:30:00,28.0,18.8,30.40,WNW,284,1.0,1.0,68,0.00,,,0.00,21,Wunderground v.1.15,2013-03-06 23:30:00,
2013-03-06 17:31:00,27.9,18.7,30.40,WNW,284,1.0,3.0,68,0.00,,,0.00,19,Wunderground v.1.15,2013-03-06 23:31:00,
2013-03-06 17:34:00,27.8,18.9,30.40,WNW,284,1.0,3.0,69,0.00,,,0.00,19,Wunderground v.1.15,2013-03-06 23:34:00,
2013-03-06 17:35:00,27.8,18.9,30.40,WNW,284,1.0,3.0,69,0.00,,,0.00,16,Wunderground v.1.15,2013-03-06 23:35:00,
2013-03-06 17:37:00,27.7,18.8,30.40,WNW,284,1.0,3.0,69,0.00,,,0.00,16,Wunderground v.1.15,2013-03-06 23:37:00,
2013-03-06 17:40:00,27.5,18.7,30.40,WNW,284,1.0,1.0,69,0.00,,,0.00,14,Wunderground v.1.15,2013-03-06 23:40:00,
2013-03-06 17:42:00,27.3,18.5,30.40,WNW,284,0.0,1.0,69,0.00,,,0.00,12,Wunderground v.1.15,2013-03-06 23:42:00,
2013-03-06 17:44:00,27.2,18.4,30.40,WNW,284,0.0,1.0,69,0.00,,,0.00,12,Wunderground v.1.15,2013-03-06 23:44:00,
2013-03-06 17:46:00,27.1,18.6,30.40,WNW,284,0.0,1.0,70,0.00,,,0.00,11,Wunderground v.1.15,2013-03-06 23:46:00,
2013-03-06 17:49:00,27.0,18.5,30.40,WNW,284,0.0,1.0,70,0.00,,,0.00,9,Wunderground v.1.15,2013-03-06 23:49:00,
2013-03-06 17:50:00,27.0,18.5,30.40,WNW,284,0.0,0.0,70,0.00,,,0.00,9,Wunderground v.1.15,2013-03-06 23:50:00,
2013-03-06 17:51:00,26.9,18.7,30.40,WNW,284,0.0,0.0,71,0.00,,,0.00,9,Wunderground v.1.15,2013-03-06 23:51:00,
2013-03-06 17:55:00,26.6,18.5,30.40,WNW,284,0.0,0.0,71,0.00,,,0.00,5,Wunderground v.1.15,2013-03-06 23:55:00,
2013-03-06 17:56:00,26.5,18.4,30.40,WNW,284,0.0,0.0,71,0.00,,,0.00,5,Wunderground v.1.15,2013-03-06 23:56:00,
2013-03-06 17:59:00,25.8,18.0,30.40,WNW,284,0.0,0.0,72,0.00,,,0.00,0,Wunderground v.1.15,2013-03-06 23:59:00,
2013-03-06 18:01:00,25.5,17.7,30.40,WNW,284,0.0,0.0,72,0.00,,,0.00,0,Wunderground v.1.15,2013-03-07 00:01:00,
2013-03-06 18:03:00,25.2,17.8,30.40,WNW,284,0.0,0.0,73,0.00,,,0.00,0,Wunderground v.1.15,2013-03-07 00:03:00,
2013-03-06 18:08:00,24.6,17.5,30.41,WNW,284,0.0,2.0,74,0.00,,,0.00,0,Wunderground v.1.15,2013-03-07 00:08:00,
2013-03-06 18:10:00,24.3,17.2,30.41,WNW,284,0.0,1.0,74,0.00,,,0.00,0,Wunderground v.1.15,2013-03-07 00:10:00,
2013-03-06 18:11:00,24.2,17.1,30.41,WNW,284,0.0,1.0,74,0.00,,,0.00,0,Wunderground v.1.15,2013-03-07 00:11:00,
2013-03-06 18:12:00,24.1,17.0,30.41,WNW,284,0.0,1.0,74,0.00,,,0.00,0,Wunderground v.1.15,2013-03-07 00:12:00,
2013-03-06 18:15:00,23.8,17.0,30.41,WNW,284,0.0,1.0,75,0.00,,,0.00,0,Wunderground v.1.15,2013-03-07 00:15:00,
2013-03-06 18:17:00,23.6,17.1,30.41,WNW,284,0.0,1.0,76,0.00,,,0.00,0,Wunderground v.1.15,2013-03-07 00:17:00,
2013-03-06 18:18:00,23.6,17.1,30.41,WNW,284,1.0,1.0,76,0.00,,,0.00,0,Wunderground v.1.15,2013-03-07 00:18:00,
2013-03-06 18:21:00,23.7,17.2,30.41,WNW,284,0.0,1.0,76,0.00,,,0.00,0,Wunderground v.1.15,2013-03-07 00:21:00,
2013-03-06 18:22:00,23.6,17.1,30.41,WNW,284,0.0,2.0,76,0.00,,,0.00,0,Wunderground v.1.15,2013-03-07 00:22:00,
2013-03-06 18:23:00,23.6,17.1,30.41,WNW,284,1.0,2.0,76,0.00,,,0.00,0,Wunderground v.1.15,2013-03-07 00:23:00,
2013-03-06 18:24:00,23.6,17.1,30.41,WNW,284,1.0,2.0,76,0.00,,,0.00,0,Wunderground v.1.15,2013-03-07 00:24:00,
2013-03-06 18:28:00,23.0,16.6,30.42,WNW,284,1.0,2.0,76,0.00,,,0.00,0,Wunderground v.1.15,2013-03-07 00:28:00,
2013-03-06 18:32:00,22.5,16.1,30.42,WNW,284,1.0,1.0,76,0.00,,,0.00,0,Wunderground v.1.15,2013-03-07 00:32:00,
2013-03-06 18:35:00,22.0,15.9,30.41,WNW,284,1.0,1.0,77,0.00,,,0.00,0,Wunderground v.1.15,2013-03-07 00:35:00,
2013-03-06 18:38:00,21.8,16.0,30.41,WNW,284,0.0,1.0,78,0.00,,,0.00,0,Wunderground v.1.15,2013-03-07 00:38:00,
2013-03-06 18:41:00,21.6,16.1,30.41,WNW,284,0.0,0.0,79,0.00,,,0.00,0,Wunderground v.1.15,2013-03-07 00:41:00,
2013-03-06 18:43:00,21.4,16.2,30.41,WNW,284,0.0,0.0,80,0.00,,,0.00,0,Wunderground v.1.15,2013-03-07 00:43:00,
2013-03-06 18:44:00,21.4,16.2,30.41,WNW,284,0.0,0.0,80,0.00,,,0.00,0,Wunderground v.1.15,2013-03-07 00:44:00,
2013-03-06 18:46:00,21.2,16.0,30.41,WNW,284,0.0,0.0,80,0.00,,,0.00,0,Wunderground v.1.15,2013-03-07 00:46:00,
2013-03-06 18:48:00,21.0,15.8,30.41,WNW,284,0.0,0.0,80,0.00,,,0.00,0,Wunderground v.1.15,2013-03-07 00:48:00,
2013-03-06 18:49:00,21.0,16.1,30.41,WNW,284,0.0,0.0,81,0.00,,,0.00,0,Wunderground v.1.15,2013-03-07 00:49:00,
2013-03-06 18:52:00,20.8,15.9,30.41,WNW,284,0.0,0.0,81,0.00,,,0.00,0,Wunderground v.1.15,2013-03-07 00:52:00,
2013-03-06 18:54:00,20.7,16.1,30.41,WNW,284,0.0,0.0,82,0.00,,,0.00,0,Wunderground v.1.15,2013-03-07 00:54:00,
2013-03-06 18:58:00,20.6,16.3,30.41,WNW,284,0.0,0.0,83,0.00,,,0.00,0,Wunderground v.1.15,2013-03-07 00:58:00,
2013-03-06 19:02:00,20.5,16.2,30.41,WNW,284,0.0,0.0,83,0.00,,,0.00,0,Wunderground v.1.15,2013-03-07 01:02:00,
2013-03-06 19:05:00,20.0,15.4,30.41,WNW,284,0.0,0.0,82,0.00,,,0.00,0,Wunderground v.1.15,2013-03-07 01:05:00,
2013-03-06 19:10:00,19.4,15.1,30.41,WNW,284,0.0,0.0,83,0.00,,,0.00,0,Wunderground v.1.15,2013-03-07 01:10:00,
2013-03-06 19:11:00,19.3,15.0,30.42,WNW,284,0.0,0.0,83,0.00,,,0.00,0,Wunderground v.1.15,2013-03-07 01:11:00,
2013-03-06 19:13:00,19.1,14.8,30.41,WNW,284,0.0,0.0,83,0.00,,,0.00,0,Wunderground v.1.15,2013-03-07 01:13:00,
2013-03-06 19:15:00,19.1,14.8,30.41,WNW,284,0.0,0.0,83,0.00,,,0.00,0,Wunderground v.1.15,2013-03-07 01:15:00,
2013-03-06 19:19:00,19.3,15.3,30.41,WNW,284,0.0,0.0,84,0.00,,,0.00,0,Wunderground v.1.15,2013-03-07 01:19:00,
2013-03-06 19:20:00,19.2,15.2,30.41,WNW,284,0.0,0.0,84,0.00,,,0.00,0,Wunderground v.1.15,2013-03-07 01:20:00,
2013-03-06 19:24:00,18.7,14.7,30.42,WNW,284,0.0,0.0,84,0.00,,,0.00,0,Wunderground v.1.15,2013-03-07 01:24:00,
2013-03-06 19:25:00,18.6,14.6,30.42,WNW,284,0.0,1.0,84,0.00,,,0.00,0,Wunderground v.1.15,2013-03-07 01:25:00,
2013-03-06 19:31:00,18.3,14.3,30.42,WNW,284,1.0,1.0,84,0.00,,,0.00,0,Wunderground v.1.15,2013-03-07 01:31:00,
2013-03-06 19:32:00,18.2,14.2,30.42,WNW,284,1.0,1.0,84,0.00,,,0.00,0,Wunderground v.1.15,2013-03-07 01:32:00,
2013-03-06 19:35:00,18.0,14.0,30.42,WNW,284,1.0,1.0,84,0.00,,,0.00,0,Wunderground v.1.15,2013-03-07 01:35:00,
2013-03-06 19:38:00,17.7,13.7,30.42,WNW,284,0.0,1.0,84,0.00,,,0.00,0,Wunderground v.1.15,2013-03-07 01:38:00,
2013-03-06 19:39:00,17.6,13.6,30.42,WNW,284,0.0,1.0,84,0.00,,,0.00,0,Wunderground v.1.15,2013-03-07 01:39:00,
2013-03-06 19:40:00,17.3,13.3,30.42,WNW,284,0.0,2.0,84,0.00,,,0.00,0,Wunderground v.1.15,2013-03-07 01:40:00,
2013-03-06 19:44:00,16.6,12.6,30.42,WNW,284,1.0,3.0,84,0.00,,,0.00,0,Wunderground v.1.15,2013-03-07 01:44:00,
2013-03-06 19:47:00,16.2,12.2,30.42,WNW,284,1.0,3.0,84,0.00,,,0.00,0,Wunderground v.1.15,2013-03-07 01:47:00,
2013-03-06 19:48:00,16.2,12.2,30.42,WNW,284,1.0,3.0,84,0.00,,,0.00,0,Wunderground v.1.15,2013-03-07 01:48:00,
2013-03-06 19:51:00,16.2,12.5,30.42,WNW,284,1.0,1.0,85,0.00,,,0.00,0,Wunderground v.1.15,2013-03-07 01:51:00,
2013-03-06 19:52:00,16.2,12.5,30.42,WNW,284,1.0,1.0,85,0.00,,,0.00,0,Wunderground v.1.15,2013-03-07 01:52:00,
2013-03-06 19:53:00,16.2,12.5,30.42,WNW,284,0.0,1.0,85,0.00,,,0.00,0,Wunderground v.1.15,2013-03-07 01:53:00,
2013-03-06 19:55:00,16.1,12.4,30.42,WNW,284,0.0,1.0,85,0.00,,,0.00,0,Wunderground v.1.15,2013-03-07 01:55:00,
2013-03-06 19:57:00,16.1,12.4,30.42,WNW,284,0.0,1.0,85,0.00,,,0.00,0,Wunderground v.1.15,2013-03-07 01:57:00,
2013-03-06 19:58:00,16.0,12.3,30.42,WNW,284,0.0,1.0,85,0.00,,,0.00,0,Wunderground v.1.15,2013-03-07 01:58:00,
2013-03-06 19:59:00,16.0,12.3,30.42,WNW,284,0.0,1.0,85,0.00,,,0.00,0,Wunderground v.1.15,2013-03-07 01:59:00,
2013-03-06 20:00:00,16.0,12.3,30.42,WNW,284,0.0,0.0,85,0.00,,,0.00,0,Wunderground v.1.15,2013-03-07 02:00:00,
2013-03-06 20:04:00,15.8,12.1,30.42,WNW,284,0.0,0.0,85,0.00,,,0.00,0,Wunderground v.1.15,2013-03-07 02:04:00,
2013-03-06 20:05:00,15.7,12.0,30.42,WNW,284,0.0,0.0,85,0.00,,,0.00,0,Wunderground v.1.15,2013-03-07 02:05:00,
2013-03-06 20:10:00,15.5,11.8,30.42,WNW,284,0.0,0.0,85,0.00,,,0.00,0,Wunderground v.1.15,2013-03-07 02:10:00,
2013-03-06 20:11:00,15.5,12.1,30.42,WNW,284,0.0,0.0,86,0.00,,,0.00,0,Wunderground v.1.15,2013-03-07 02:11:00,
2013-03-06 20:12:00,15.5,12.1,30.42,WNW,284,0.0,0.0,86,0.00,,,0.00,0,Wunderground v.1.15,2013-03-07 02:12:00,
2013-03-06 20:14:00,15.5,12.1,30.42,WNW,284,0.0,0.0,86,0.00,,,0.00,0,Wunderground v.1.15,2013-03-07 02:14:00,
2013-03-06 20:15:00,15.5,12.1,30.42,WNW,284,0.0,0.0,86,0.00,,,0.00,0,Wunderground v.1.15,2013-03-07 02:15:00,
2013-03-06 20:17:00,15.5,12.1,30.42,WNW,284,0.0,0.0,86,0.00,,,0.00,0,Wunderground v.1.15,2013-03-07 02:17:00,
2013-03-06 20:20:00,15.4,12.0,30.42,WNW,284,0.0,1.0,86,0.00,,,0.00,0,Wunderground v.1.15,2013-03-07 02:20:00,
2013-03-06 20:22:00,15.3,11.9,30.42,WNW,284,0.0,1.0,86,0.00,,,0.00,0,Wunderground v.1.15,2013-03-07 02:22:00,
2013-03-06 20:23:00,15.1,11.4,30.43,WNW,284,0.0,1.0,85,0.00,,,0.00,0,Wunderground v.1.15,2013-03-07 02:23:00,
2013-03-06 20:24:00,15.0,11.3,30.43,WNW,284,0.0,1.0,85,0.00,,,0.00,0,Wunderground v.1.15,2013-03-07 02:24:00,
2013-03-06 20:25:00,15.0,11.6,30.43,WNW,284,0.0,1.0,86,0.00,,,0.00,0,Wunderground v.1.15,2013-03-07 02:25:00,
2013-03-06 20:29:00,14.3,10.6,30.43,WNW,284,0.0,1.0,85,0.00,,,0.00,0,Wunderground v.1.15,2013-03-07 02:29:00,
2013-03-06 20:30:00,14.1,10.4,30.43,WNW,284,0.0,0.0,85,0.00,,,0.00,0,Wunderground v.1.15,2013-03-07 02:30:00,
2013-03-06 20:31:00,13.9,10.2,30.43,WNW,284,0.0,0.0,85,0.00,,,0.00,0,Wunderground v.1.15,2013-03-07 02:31:00,
2013-03-06 20:34:00,13.7,10.3,30.43,WNW,284,0.0,0.0,86,0.00,,,0.00,0,Wunderground v.1.15,2013-03-07 02:34:00,
2013-03-06 20:37:00,13.7,10.3,30.43,WNW,284,0.0,0.0,86,0.00,,,0.00,0,Wunderground v.1.15,2013-03-07 02:37:00,
2013-03-06 20:39:00,13.6,10.5,30.43,WNW,284,0.0,0.0,87,0.00,,,0.00,0,Wunderground v.1.15,2013-03-07 02:39:00,
2013-03-06 20:40:00,13.6,10.5,30.43,WNW,284,0.0,0.0,87,0.00,,,0.00,0,Wunderground v.1.15,2013-03-07 02:40:00,
2013-03-06 20:41:00,13.6,10.5,30.43,WNW,284,0.0,0.0,87,0.00,,,0.00,0,Wunderground v.1.15,2013-03-07 02:41:00,
2013-03-06 20:45:00,13.4,10.3,30.43,WNW,284,0.0,0.0,87,0.00,,,0.00,0,Wunderground v.1.15,2013-03-07 02:45:00,
2013-03-06 20:46:00,13.5,10.4,30.43,WNW,284,0.0,0.0,87,0.00,,,0.00,0,Wunderground v.1.15,2013-03-07 02:46:00,
2013-03-06 20:49:00,13.7,10.8,30.43,WNW,284,0.0,0.0,88,0.00,,,0.00,0,Wunderground v.1.15,2013-03-07 02:49:00,
2013-03-06 20:50:00,13.8,10.9,30.43,WNW,284,0.0,0.0,88,0.00,,,0.00,0,Wunderground v.1.15,2013-03-07 02:50:00,
2013-03-06 20:53:00,14.0,11.1,30.43,WNW,284,0.0,0.0,88,0.00,,,0.00,0,Wunderground v.1.15,2013-03-07 02:53:00,
2013-03-06 20:54:00,14.0,11.1,30.43,WNW,284,0.0,0.0,88,0.00,,,0.00,0,Wunderground v.1.15,2013-03-07 02:54:00,
2013-03-06 20:57:00,13.5,10.4,30.43,WNW,284,0.0,0.0,87,0.00,,,0.00,0,Wunderground v.1.15,2013-03-07 02:57:00,
2013-03-06 20:58:00,13.4,10.3,30.43,WNW,284,0.0,0.0,87,0.00,,,0.00,0,Wunderground v.1.15,2013-03-07 02:58:00,
2013-03-06 21:00:00,13.1,10.0,30.43,WNW,284,0.0,0.0,87,0.00,,,0.00,0,Wunderground v.1.15,2013-03-07 03:00:00,
2013-03-06 21:01:00,13.0,9.9,30.43,WNW,284,0.0,0.0,87,0.00,,,0.00,0,Wunderground v.1.15,2013-03-07 03:01:00,
2013-03-06 21:06:00,12.2,9.1,30.43,WNW,284,0.0,0.0,87,0.00,,,0.00,0,Wunderground v.1.15,2013-03-07 03:06:00,
2013-03-06 21:08:00,12.4,9.5,30.43,WNW,284,0.0,0.0,88,0.00,,,0.00,0,Wunderground v.1.15,2013-03-07 03:08:00,
2013-03-06 21:11:00,12.3,9.4,30.43,WNW,284,0.0,0.0,88,0.00,,,0.00,0,Wunderground v.1.15,2013-03-07 03:11:00,
2013-03-06 21:14:00,12.2,9.3,30.43,WNW,284,0.0,0.0,88,0.00,,,0.00,0,Wunderground v.1.15,2013-03-07 03:14:00,
2013-03-06 21:17:00,12.1,9.2,30.43,WNW,284,0.0,1.0,88,0.00,,,0.00,0,Wunderground v.1.15,2013-03-07 03:17:00,
2013-03-06 21:18:00,12.1,9.2,30.43,WNW,284,0.0,1.0,88,0.00,,,0.00,0,Wunderground v.1.15,2013-03-07 03:18:00,
2013-03-06 21:20:00,11.9,9.0,30.43,WNW,284,0.0,0.0,88,0.00,,,0.00,0,Wunderground v.1.15,2013-03-07 03:20:00,
2013-03-06 21:23:00,11.6,8.7,30.43,WNW,284,0.0,1.0,88,0.00,,,0.00,0,Wunderground v.1.15,2013-03-07 03:23:00,
2013-03-06 21:26:00,11.5,8.6,30.43,WNW,284,0.0,1.0,88,0.00,,,0.00,0,Wunderground v.1.15,2013-03-07 03:26:00,
2013-03-06 21:29:00,11.4,8.5,30.43,WNW,284,0.0,1.0,88,0.00,,,0.00,0,Wunderground v.1.15,2013-03-07 03:29:00,
2013-03-06 21:34:00,11.0,7.9,30.43,WNW,284,0.0,0.0,87,0.00,,,0.00,0,Wunderground v.1.15,2013-03-07 03:34:00,
2013-03-06 21:36:00,10.8,7.7,30.44,WNW,284,0.0,0.0,87,0.00,,,0.00,0,Wunderground v.1.15,2013-03-07 03:36:00,
2013-03-06 21:38:00,10.3,7.2,30.44,WNW,284,0.0,0.0,87,0.00,,,0.00,0,Wunderground v.1.15,2013-03-07 03:38:00,
2013-03-06 21:41:00,10.1,7.3,30.44,WNW,284,0.0,0.0,88,0.00,,,0.00,0,Wunderground v.1.15,2013-03-07 03:41:00,
2013-03-06 21:42:00,10.1,7.3,30.44,WNW,284,0.0,0.0,88,0.00,,,0.00,0,Wunderground v.1.15,2013-03-07 03:42:00,
2013-03-06 21:45:00,10.0,7.2,30.43,WNW,284,0.0,0.0,88,0.00,,,0.00,0,Wunderground v.1.15,2013-03-07 03:45:00,
2013-03-06 21:47:00,10.1,7.3,30.43,WNW,284,0.0,0.0,88,0.00,,,0.00,0,Wunderground v.1.15,2013-03-07 03:47:00,
2013-03-06 21:48:00,10.2,7.4,30.44,WNW,284,0.0,0.0,88,0.00,,,0.00,0,Wunderground v.1.15,2013-03-07 03:48:00,
2013-03-06 21:51:00,10.1,7.3,30.44,WNW,284,0.0,1.0,88,0.00,,,0.00,0,Wunderground v.1.15,2013-03-07 03:51:00,
2013-03-06 21:57:00,9.3,6.2,30.44,WNW,284,0.0,1.0,87,0.00,,,0.00,0,Wunderground v.1.15,2013-03-07 03:57:00,
2013-03-06 21:58:00,9.2,6.4,30.44,WNW,284,0.0,1.0,88,0.00,,,0.00,0,Wunderground v.1.15,2013-03-07 03:58:00,
2013-03-06 22:00:00,9.2,6.4,30.44,WNW,284,0.0,0.0,88,0.00,,,0.00,0,Wunderground v.1.15,2013-03-07 04:00:00,
2013-03-06 22:01:00,9.4,6.6,30.44,WNW,284,0.0,0.0,88,0.00,,,0.00,0,Wunderground v.1.15,2013-03-07 04:01:00,
2013-03-06 22:03:00,9.5,6.9,30.44,WNW,284,0.0,0.0,89,0.00,,,0.00,0,Wunderground v.1.15,2013-03-07 04:03:00,
2013-03-06 22:05:00,9.4,6.6,30.44,WNW,284,0.0,0.0,88,0.00,,,0.00,0,Wunderground v.1.15,2013-03-07 04:05:00,
2013-03-06 22:08:00,9.4,6.8,30.44,WNW,284,0.0,0.0,89,0.00,,,0.00,0,Wunderground v.1.15,2013-03-07 04:08:00,
2013-03-06 22:09:00,9.4,6.6,30.44,WNW,284,0.0,0.0,88,0.00,,,0.00,0,Wunderground v.1.15,2013-03-07 04:09:00,
2013-03-06 22:13:00,9.0,6.2,30.44,WNW,284,0.0,0.0,88,0.00,,,0.00,0,Wunderground v.1.15,2013-03-07 04:13:00,
2013-03-06 22:14:00,8.9,6.1,30.44,WNW,284,0.0,0.0,88,0.00,,,0.00,0,Wunderground v.1.15,2013-03-07 04:14:00,
2013-03-06 22:16:00,8.8,6.0,30.44,WNW,284,0.0,0.0,88,0.00,,,0.00,0,Wunderground v.1.15,2013-03-07 04:16:00,
2013-03-06 22:18:00,8.7,5.9,30.44,WNW,284,0.0,0.0,88,0.00,,,0.00,0,Wunderground v.1.15,2013-03-07 04:18:00,
2013-03-06 22:19:00,8.7,5.9,30.44,WNW,284,0.0,0.0,88,0.00,,,0.00,0,Wunderground v.1.15,2013-03-07 04:19:00,
2013-03-06 22:21:00,8.5,5.7,30.44,WNW,284,0.0,0.0,88,0.00,,,0.00,0,Wunderground v.1.15,2013-03-07 04:21:00,
2013-03-06 22:24:00,8.1,5.3,30.44,WNW,284,0.0,1.0,88,0.00,,,0.00,0,Wunderground v.1.15,2013-03-07 04:24:00,
2013-03-06 22:25:00,8.1,5.3,30.44,WNW,284,0.0,1.0,88,0.00,,,0.00,0,Wunderground v.1.15,2013-03-07 04:25:00,
2013-03-06 22:29:00,7.8,5.0,30.44,WNW,284,0.0,1.0,88,0.00,,,0.00,0,Wunderground v.1.15,2013-03-07 04:29:00,
2013-03-06 22:30:00,7.9,5.1,30.44,WNW,284,0.0,0.0,88,0.00,,,0.00,0,Wunderground v.1.15,2013-03-07 04:30:00,
2013-03-06 22:31:00,8.0,5.2,30.44,WNW,284,0.0,0.0,88,0.00,,,0.00,0,Wunderground v.1.15,2013-03-07 04:31:00,
2013-03-06 22:33:00,8.0,5.2,30.44,WNW,284,0.0,0.0,88,0.00,,,0.00,0,Wunderground v.1.15,2013-03-07 04:33:00,
2013-03-06 22:36:00,8.1,5.3,30.44,WNW,284,0.0,0.0,88,0.00,,,0.00,0,Wunderground v.1.15,2013-03-07 04:36:00,
2013-03-06 22:38:00,8.1,5.3,30.44,WNW,284,0.0,0.0,88,0.00,,,0.00,0,Wunderground v.1.15,2013-03-07 04:38:00,
2013-03-06 22:39:00,8.1,5.3,30.44,WNW,284,0.0,0.0,88,0.00,,,0.00,0,Wunderground v.1.15,2013-03-07 04:39:00,
2013-03-06 22:42:00,8.2,5.4,30.44,WNW,284,0.0,0.0,88,0.00,,,0.00,0,Wunderground v.1.15,2013-03-07 04:42:00,
2013-03-06 22:46:00,8.1,5.3,30.44,WNW,284,0.0,0.0,88,0.00,,,0.00,0,Wunderground v.1.15,2013-03-07 04:46:00,
2013-03-06 22:47:00,8.0,5.2,30.44,WNW,284,0.0,0.0,88,0.00,,,0.00,0,Wunderground v.1.15,2013-03-07 04:47:00,
2013-03-06 22:48:00,8.0,5.2,30.44,WNW,284,0.0,0.0,88,0.00,,,0.00,0,Wunderground v.1.15,2013-03-07 04:48:00,
2013-03-06 22:49:00,7.9,5.1,30.44,WNW,284,0.0,0.0,88,0.00,,,0.00,0,Wunderground v.1.15,2013-03-07 04:49:00,
2013-03-06 22:53:00,7.8,5.0,30.44,WNW,284,0.0,0.0,88,0.00,,,0.00,0,Wunderground v.1.15,2013-03-07 04:53:00,
2013-03-06 22:56:00,7.7,4.9,30.44,WNW,284,0.0,0.0,88,0.00,,,0.00,0,Wunderground v.1.15,2013-03-07 04:56:00,
2013-03-06 22:58:00,7.7,5.1,30.44,WNW,284,0.0,0.0,89,0.00,,,0.00,0,Wunderground v.1.15,2013-03-07 04:58:00,
2013-03-06 22:59:00,7.7,4.9,30.44,WNW,284,0.0,0.0,88,0.00,,,0.00,0,Wunderground v.1.15,2013-03-07 04:59:00,
2013-03-06 23:00:00,7.6,4.8,30.44,WNW,284,0.0,0.0,88,0.00,,,0.00,0,Wunderground v.1.15,2013-03-07 05:00:00,
2013-03-06 23:01:00,7.6,4.8,30.44,WNW,284,0.0,0.0,88,0.00,,,0.00,0,Wunderground v.1.15,2013-03-07 05:01:00,
2013-03-06 23:05:00,7.0,4.2,30.44,WNW,284,0.0,0.0,88,0.00,,,0.00,0,Wunderground v.1.15,2013-03-07 05:05:00,
2013-03-06 23:08:00,6.8,4.0,30.44,WNW,284,0.0,0.0,88,0.00,,,0.00,0,Wunderground v.1.15,2013-03-07 05:08:00,
2013-03-06 23:09:00,6.8,4.0,30.44,WNW,284,0.0,0.0,88,0.00,,,0.00,0,Wunderground v.1.15,2013-03-07 05:09:00,
2013-03-06 23:11:00,6.7,3.9,30.44,WNW,284,0.0,0.0,88,0.00,,,0.00,0,Wunderground v.1.15,2013-03-07 05:11:00,
2013-03-06 23:15:00,6.2,3.2,30.44,WNW,284,0.0,0.0,87,0.00,,,0.00,0,Wunderground v.1.15,2013-03-07 05:15:00,
2013-03-06 23:16:00,6.1,3.1,30.44,WNW,284,0.0,0.0,87,0.00,,,0.00,0,Wunderground v.1.15,2013-03-07 05:16:00,
2013-03-06 23:18:00,6.3,3.5,30.44,WNW,284,0.0,0.0,88,0.00,,,0.00,0,Wunderground v.1.15,2013-03-07 05:18:00,
2013-03-06 23:19:00,6.3,3.5,30.44,WNW,284,0.0,0.0,88,0.00,,,0.00,0,Wunderground v.1.15,2013-03-07 05:19:00,
2013-03-06 23:21:00,6.4,3.6,30.44,WNW,284,0.0,0.0,88,0.00,,,0.00,0,Wunderground v.1.15,2013-03-07 05:21:00,
2013-03-06 23:22:00,6.4,3.6,30.44,WNW,284,0.0,0.0,88,0.00,,,0.00,0,Wunderground v.1.15,2013-03-07 05:22:00,
2013-03-06 23:27:00,5.9,3.1,30.45,WNW,284,0.0,0.0,88,0.00,,,0.00,0,Wunderground v.1.15,2013-03-07 05:27:00,
2013-03-06 23:29:00,5.8,3.0,30.44,WNW,284,0.0,0.0,88,0.00,,,0.00,0,Wunderground v.1.15,2013-03-07 05:29:00,
2013-03-06 23:31:00,5.9,3.1,30.45,WNW,284,0.0,0.0,88,0.00,,,0.00,0,Wunderground v.1.15,2013-03-07 05:31:00,
2013-03-06 23:32:00,5.9,3.1,30.45,WNW,284,0.0,0.0,88,0.00,,,0.00,0,Wunderground v.1.15,2013-03-07 05:32:00,
2013-03-06 23:37:00,5.8,3.0,30.45,WNW,284,0.0,0.0,88,0.00,,,0.00,0,Wunderground v.1.15,2013-03-07 05:37:00,
2013-03-06 23:39:00,5.8,3.0,30.44,WNW,284,0.0,0.0,88,0.00,,,0.00,0,Wunderground v.1.15,2013-03-07 05:39:00,
2013-03-06 23:43:00,5.5,2.7,30.44,WNW,284,0.0,0.0,88,0.00,,,0.00,0,Wunderground v.1.15,2013-03-07 05:43:00,
2013-03-06 23:45:00,5.5,2.7,30.44,WNW,284,0.0,0.0,88,0.00,,,0.00,0,Wunderground v.1.15,2013-03-07 05:45:00,
2013-03-06 23:47:00,5.6,2.8,30.44,WNW,284,0.0,0.0,88,0.00,,,0.00,0,Wunderground v.1.15,2013-03-07 05:47:00,
2013-03-06 23:48:00,5.7,2.9,30.44,WNW,284,0.0,0.0,88,0.00,,,0.00,0,Wunderground v.1.15,2013-03-07 05:48:00,
2013-03-06 23:50:00,5.7,2.9,30.44,WNW,284,0.0,0.0,88,0.00,,,0.00,0,Wunderground v.1.15,2013-03-07 05:50:00,
2013-03-06 23:51:00,5.8,3.0,30.44,WNW,284,0.0,0.0,88,0.00,,,0.00,0,Wunderground v.1.15,2013-03-07 05:51:00,
2013-03-06 23:52:00,5.9,3.1,30.44,WNW,284,0.0,0.0,88,0.00,,,0.00,0,Wunderground v.1.15,2013-03-07 05:52:00,
2013-03-06 23:54:00,5.7,2.9,30.45,WNW,284,0.0,0.0,88,0.00,,,0.00,0,Wunderground v.1.15,2013-03-07 05:54:00,
2013-03-06 23:56:00,5.5,2.5,30.44,WNW,284,0.0,0.0,87,0.00,,,0.00,0,Wunderground v.1.15,2013-03-07 05:56:00,
2013-03-06 23:58:00,5.3,2.3,30.45,WNW,284,0.0,0.0,87,0.00,,,0.00,0,Wunderground v.1.15,2013-03-07 05:58:00,